<?xml version="1.0" encoding="UTF-8"?>
<gpx xmlns="http://www.topografix.com/GPX/1/1" xmlns:gpsies="http://www.gpsies.com/GPX/1/0" creator="GPSies http://www.gpsies.com - temp" version="1.1" xmlns:xsi="http://www.w3.org/2001/XMLSchema-instance" xsi:schemaLocation="http://www.topografix.com/GPX/1/1 http://www.topografix.com/GPX/1/1/gpx.xsd http://www.gpsies.com/GPX/1/0 http://www.gpsies.com/gpsies.xsd">
  <metadata>
    <name>temp</name>
    <author>
      <name>joker99</name>
      <link href="http://www.gpsies.com/mapUser.do?username=joker99">
        <text>joker99 on GPSies.com</text>
        <type>GPSiesUserOnWeb</type>
      </link>
    </author>
    <link href="http://www.gpsies.com/map.do?fileId=ddhtuddoxezypdts">
      <text>temp on GPSies.com</text>
      <type>trackOnWeb</type>
    </link>
    <time>2015-09-27T18:24:01Z</time>
    <extensions>
      <gpsies:property>round trip</gpsies:property>
      <gpsies:trackLengthMeter>63937.74724300007</gpsies:trackLengthMeter>
      <gpsies:totalAscentMeter>1939.0</gpsies:totalAscentMeter>
      <gpsies:totalDescentMeter>1939.0</gpsies:totalDescentMeter>
      <gpsies:minHeightMeter>265.0</gpsies:minHeightMeter>
      <gpsies:maxHeightMeter>732.0</gpsies:maxHeightMeter>
    </extensions>
  </metadata>
  <trk>
    <name>temp on GPSies.com</name>
    <link href="http://www.gpsies.com/map.do?fileId=ddhtuddoxezypdts">
      <type>trackOnWeb</type>
    </link>
    <link href="http://www.gpsies.com/charts/dd/map/ddhtuddoxezypdts_map.png">
      <type>elevationChartUrlMap</type>
    </link>
    <link href="http://www.gpsies.com/charts/dd/mapThumb/ddhtuddoxezypdts_mapThumb.png">
      <type>elevationChartUrlMapThumb</type>
    </link>
    <link href="http://www.gpsies.com/charts/dd/tab/ddhtuddoxezypdts_tab.png">
      <type>elevationChartUrlTab</type>
    </link>
    <trkseg>
      <trkpt lat="31.79601000" lon="35.01552440">
        <ele>333.00000</ele>
        <time>2010-01-01T00:00:00Z</time>
      </trkpt>
      <trkpt lat="31.79522850" lon="35.01573440">
        <ele>334.00000</ele>
        <time>2010-01-01T00:00:32Z</time>
      </trkpt>
      <trkpt lat="31.79443060" lon="35.01513360">
        <ele>337.00000</ele>
        <time>2010-01-01T00:01:10Z</time>
      </trkpt>
      <trkpt lat="31.79340010" lon="35.01472590">
        <ele>341.00000</ele>
        <time>2010-01-01T00:01:53Z</time>
      </trkpt>
      <trkpt lat="31.79247910" lon="35.01453810">
        <ele>334.00000</ele>
        <time>2010-01-01T00:02:30Z</time>
      </trkpt>
      <trkpt lat="31.79159000" lon="35.01443620">
        <ele>322.00000</ele>
        <time>2010-01-01T00:03:06Z</time>
      </trkpt>
      <trkpt lat="31.79108840" lon="35.01428060">
        <ele>318.00000</ele>
        <time>2010-01-01T00:03:27Z</time>
      </trkpt>
      <trkpt lat="31.79058230" lon="35.01421090">
        <ele>316.00000</ele>
        <time>2010-01-01T00:03:47Z</time>
      </trkpt>
      <trkpt lat="31.79024490" lon="35.01403920">
        <ele>315.00000</ele>
        <time>2010-01-01T00:04:02Z</time>
      </trkpt>
      <trkpt lat="31.78940590" lon="35.01405000">
        <ele>313.00000</ele>
        <time>2010-01-01T00:04:36Z</time>
      </trkpt>
      <trkpt lat="31.78774620" lon="35.01405000">
        <ele>306.00000</ele>
        <time>2010-01-01T00:05:42Z</time>
      </trkpt>
      <trkpt lat="31.78619580" lon="35.01419480">
        <ele>297.00000</ele>
        <time>2010-01-01T00:06:44Z</time>
      </trkpt>
      <trkpt lat="31.78337780" lon="35.01461860">
        <ele>285.00000</ele>
        <time>2010-01-01T00:08:38Z</time>
      </trkpt>
      <trkpt lat="31.78238370" lon="35.01450060">
        <ele>283.00000</ele>
        <time>2010-01-01T00:09:18Z</time>
      </trkpt>
      <trkpt lat="31.78095180" lon="35.01456490">
        <ele>278.00000</ele>
        <time>2010-01-01T00:10:15Z</time>
      </trkpt>
      <trkpt lat="31.77975710" lon="35.01417870">
        <ele>265.00000</ele>
        <time>2010-01-01T00:11:05Z</time>
      </trkpt>
      <trkpt lat="31.77951540" lon="35.01445230">
        <ele>267.00000</ele>
        <time>2010-01-01T00:11:18Z</time>
      </trkpt>
      <trkpt lat="31.77927370" lon="35.01560560">
        <ele>273.00000</ele>
        <time>2010-01-01T00:11:59Z</time>
      </trkpt>
      <trkpt lat="31.77923720" lon="35.01733300">
        <ele>277.00000</ele>
        <time>2010-01-01T00:12:58Z</time>
      </trkpt>
      <trkpt lat="31.78047760" lon="35.01887790">
        <ele>289.00000</ele>
        <time>2010-01-01T00:14:10Z</time>
      </trkpt>
      <trkpt lat="31.78020400" lon="35.02068040">
        <ele>295.00000</ele>
        <time>2010-01-01T00:15:12Z</time>
      </trkpt>
      <trkpt lat="31.77927370" lon="35.02220390">
        <ele>302.00000</ele>
        <time>2010-01-01T00:16:16Z</time>
      </trkpt>
      <trkpt lat="31.77874470" lon="35.02370590">
        <ele>307.00000</ele>
        <time>2010-01-01T00:17:11Z</time>
      </trkpt>
      <trkpt lat="31.77797860" lon="35.02480030">
        <ele>311.00000</ele>
        <time>2010-01-01T00:18:00Z</time>
      </trkpt>
      <trkpt lat="31.77781440" lon="35.02546540">
        <ele>312.00000</ele>
        <time>2010-01-01T00:18:23Z</time>
      </trkpt>
      <trkpt lat="31.77713950" lon="35.02634520">
        <ele>323.00000</ele>
        <time>2010-01-01T00:19:04Z</time>
      </trkpt>
      <trkpt lat="31.77817930" lon="35.02750390">
        <ele>331.00000</ele>
        <time>2010-01-01T00:20:01Z</time>
      </trkpt>
      <trkpt lat="31.77812450" lon="35.02997150">
        <ele>343.00000</ele>
        <time>2010-01-01T00:21:25Z</time>
      </trkpt>
      <trkpt lat="31.77703010" lon="35.03188130">
        <ele>345.00000</ele>
        <time>2010-01-01T00:22:43Z</time>
      </trkpt>
      <trkpt lat="31.77635510" lon="35.03228900">
        <ele>355.00000</ele>
        <time>2010-01-01T00:23:14Z</time>
      </trkpt>
      <trkpt lat="31.77628220" lon="35.03196710">
        <ele>358.00000</ele>
        <time>2010-01-01T00:23:25Z</time>
      </trkpt>
      <trkpt lat="31.77544310" lon="35.03256790">
        <ele>363.00000</ele>
        <time>2010-01-01T00:24:04Z</time>
      </trkpt>
      <trkpt lat="31.77520590" lon="35.03248210">
        <ele>365.00000</ele>
        <time>2010-01-01T00:24:14Z</time>
      </trkpt>
      <trkpt lat="31.77571670" lon="35.03203150">
        <ele>367.00000</ele>
        <time>2010-01-01T00:24:40Z</time>
      </trkpt>
      <trkpt lat="31.77474990" lon="35.03235340">
        <ele>387.00000</ele>
        <time>2010-01-01T00:25:20Z</time>
      </trkpt>
      <trkpt lat="31.77456750" lon="35.03308290">
        <ele>395.00000</ele>
        <time>2010-01-01T00:25:46Z</time>
      </trkpt>
      <trkpt lat="31.77454920" lon="35.03381250">
        <ele>407.00000</ele>
        <time>2010-01-01T00:26:11Z</time>
      </trkpt>
      <trkpt lat="31.77538830" lon="35.03319020">
        <ele>381.00000</ele>
        <time>2010-01-01T00:26:50Z</time>
      </trkpt>
      <trkpt lat="31.77684760" lon="35.03383390">
        <ele>399.00000</ele>
        <time>2010-01-01T00:27:53Z</time>
      </trkpt>
      <trkpt lat="31.77730370" lon="35.03570070">
        <ele>433.00000</ele>
        <time>2010-01-01T00:28:59Z</time>
      </trkpt>
      <trkpt lat="31.77837990" lon="35.03765340">
        <ele>439.00000</ele>
        <time>2010-01-01T00:30:18Z</time>
      </trkpt>
      <trkpt lat="31.77900010" lon="35.03990650">
        <ele>465.00000</ele>
        <time>2010-01-01T00:31:39Z</time>
      </trkpt>
      <trkpt lat="31.78013100" lon="35.04061460">
        <ele>460.00000</ele>
        <time>2010-01-01T00:32:30Z</time>
      </trkpt>
      <trkpt lat="31.78140790" lon="35.04136560">
        <ele>462.00000</ele>
        <time>2010-01-01T00:33:27Z</time>
      </trkpt>
      <trkpt lat="31.78164500" lon="35.04192350">
        <ele>481.00000</ele>
        <time>2010-01-01T00:33:48Z</time>
      </trkpt>
      <trkpt lat="31.78224690" lon="35.04213800">
        <ele>466.00000</ele>
        <time>2010-01-01T00:34:14Z</time>
      </trkpt>
      <trkpt lat="31.78244760" lon="35.04366150">
        <ele>492.00000</ele>
        <time>2010-01-01T00:35:06Z</time>
      </trkpt>
      <trkpt lat="31.78290360" lon="35.04529230">
        <ele>490.00000</ele>
        <time>2010-01-01T00:36:04Z</time>
      </trkpt>
      <trkpt lat="31.78264820" lon="35.04776000">
        <ele>513.00000</ele>
        <time>2010-01-01T00:37:29Z</time>
      </trkpt>
      <trkpt lat="31.78310420" lon="35.05042070">
        <ele>526.00000</ele>
        <time>2010-01-01T00:39:01Z</time>
      </trkpt>
      <trkpt lat="31.78306770" lon="35.05312440">
        <ele>547.00000</ele>
        <time>2010-01-01T00:40:33Z</time>
      </trkpt>
      <trkpt lat="31.78241110" lon="35.05505560">
        <ele>563.00000</ele>
        <time>2010-01-01T00:41:44Z</time>
      </trkpt>
      <trkpt lat="31.78204630" lon="35.05527010">
        <ele>566.00000</ele>
        <time>2010-01-01T00:42:01Z</time>
      </trkpt>
      <trkpt lat="31.78027690" lon="35.05529160">
        <ele>586.00000</ele>
        <time>2010-01-01T00:43:11Z</time>
      </trkpt>
      <trkpt lat="31.77903660" lon="35.05797380">
        <ele>594.00000</ele>
        <time>2010-01-01T00:44:55Z</time>
      </trkpt>
      <trkpt lat="31.78033170" lon="35.05833860">
        <ele>581.00000</ele>
        <time>2010-01-01T00:45:49Z</time>
      </trkpt>
      <trkpt lat="31.78038640" lon="35.05939000">
        <ele>591.00000</ele>
        <time>2010-01-01T00:46:24Z</time>
      </trkpt>
      <trkpt lat="31.78007630" lon="35.06145000">
        <ele>595.00000</ele>
        <time>2010-01-01T00:47:36Z</time>
      </trkpt>
      <trkpt lat="31.77927370" lon="35.06312370">
        <ele>609.00000</ele>
        <time>2010-01-01T00:48:41Z</time>
      </trkpt>
      <trkpt lat="31.77910950" lon="35.06364940">
        <ele>612.00000</ele>
        <time>2010-01-01T00:49:00Z</time>
      </trkpt>
      <trkpt lat="31.77891800" lon="35.06419650">
        <ele>618.00000</ele>
        <time>2010-01-01T00:49:20Z</time>
      </trkpt>
      <trkpt lat="31.77894540" lon="35.06445400">
        <ele>621.00000</ele>
        <time>2010-01-01T00:49:29Z</time>
      </trkpt>
      <trkpt lat="31.77918250" lon="35.06451840">
        <ele>618.00000</ele>
        <time>2010-01-01T00:49:39Z</time>
      </trkpt>
      <trkpt lat="31.77972970" lon="35.06426090">
        <ele>615.00000</ele>
        <time>2010-01-01T00:50:02Z</time>
      </trkpt>
      <trkpt lat="31.78086060" lon="35.06372450">
        <ele>605.00000</ele>
        <time>2010-01-01T00:50:51Z</time>
      </trkpt>
      <trkpt lat="31.78100660" lon="35.06447550">
        <ele>613.00000</ele>
        <time>2010-01-01T00:51:17Z</time>
      </trkpt>
      <trkpt lat="31.78106130" lon="35.06584880">
        <ele>613.00000</ele>
        <time>2010-01-01T00:52:04Z</time>
      </trkpt>
      <trkpt lat="31.78016750" lon="35.06769410">
        <ele>618.00000</ele>
        <time>2010-01-01T00:53:16Z</time>
      </trkpt>
      <trkpt lat="31.78033170" lon="35.06850950">
        <ele>608.00000</ele>
        <time>2010-01-01T00:53:45Z</time>
      </trkpt>
      <trkpt lat="31.78025870" lon="35.06932490">
        <ele>608.00000</ele>
        <time>2010-01-01T00:54:13Z</time>
      </trkpt>
      <trkpt lat="31.77945610" lon="35.07132050">
        <ele>605.00000</ele>
        <time>2010-01-01T00:55:28Z</time>
      </trkpt>
      <trkpt lat="31.77934670" lon="35.07333750">
        <ele>601.00000</ele>
        <time>2010-01-01T00:56:37Z</time>
      </trkpt>
      <trkpt lat="31.77974800" lon="35.07451770">
        <ele>597.00000</ele>
        <time>2010-01-01T00:57:20Z</time>
      </trkpt>
      <trkpt lat="31.77974800" lon="35.07516140">
        <ele>594.00000</ele>
        <time>2010-01-01T00:57:42Z</time>
      </trkpt>
      <trkpt lat="31.77945610" lon="35.07591240">
        <ele>589.00000</ele>
        <time>2010-01-01T00:58:10Z</time>
      </trkpt>
      <trkpt lat="31.77883590" lon="35.07651320">
        <ele>596.00000</ele>
        <time>2010-01-01T00:58:42Z</time>
      </trkpt>
      <trkpt lat="31.77916430" lon="35.07754320">
        <ele>583.00000</ele>
        <time>2010-01-01T00:59:20Z</time>
      </trkpt>
      <trkpt lat="31.77916430" lon="35.07853030">
        <ele>595.00000</ele>
        <time>2010-01-01T00:59:53Z</time>
      </trkpt>
      <trkpt lat="31.78128020" lon="35.07792940">
        <ele>580.00000</ele>
        <time>2010-01-01T01:01:20Z</time>
      </trkpt>
      <trkpt lat="31.78182740" lon="35.07816550">
        <ele>575.00000</ele>
        <time>2010-01-01T01:01:44Z</time>
      </trkpt>
      <trkpt lat="31.78231990" lon="35.07889500">
        <ele>576.00000</ele>
        <time>2010-01-01T01:02:15Z</time>
      </trkpt>
      <trkpt lat="31.78346900" lon="35.07988210">
        <ele>565.00000</ele>
        <time>2010-01-01T01:03:12Z</time>
      </trkpt>
      <trkpt lat="31.78337780" lon="35.08149140">
        <ele>566.00000</ele>
        <time>2010-01-01T01:04:07Z</time>
      </trkpt>
      <trkpt lat="31.78230160" lon="35.08449550">
        <ele>579.00000</ele>
        <time>2010-01-01T01:05:58Z</time>
      </trkpt>
      <trkpt lat="31.78261170" lon="35.08619070">
        <ele>592.00000</ele>
        <time>2010-01-01T01:06:57Z</time>
      </trkpt>
      <trkpt lat="31.78323190" lon="35.09020320">
        <ele>614.00000</ele>
        <time>2010-01-01T01:09:16Z</time>
      </trkpt>
      <trkpt lat="31.78321360" lon="35.09228460">
        <ele>631.00000</ele>
        <time>2010-01-01T01:10:27Z</time>
      </trkpt>
      <trkpt lat="31.78206450" lon="35.09702680">
        <ele>653.00000</ele>
        <time>2010-01-01T01:13:15Z</time>
      </trkpt>
      <trkpt lat="31.78195510" lon="35.09837860">
        <ele>660.00000</ele>
        <time>2010-01-01T01:14:01Z</time>
      </trkpt>
      <trkpt lat="31.78221040" lon="35.10037420">
        <ele>658.00000</ele>
        <time>2010-01-01T01:15:09Z</time>
      </trkpt>
      <trkpt lat="31.78222870" lon="35.10200500">
        <ele>667.00000</ele>
        <time>2010-01-01T01:16:05Z</time>
      </trkpt>
      <trkpt lat="31.78144430" lon="35.10361430">
        <ele>679.00000</ele>
        <time>2010-01-01T01:17:08Z</time>
      </trkpt>
      <trkpt lat="31.78270290" lon="35.10751960">
        <ele>697.00000</ele>
        <time>2010-01-01T01:19:30Z</time>
      </trkpt>
      <trkpt lat="31.78387030" lon="35.11204710">
        <ele>713.00000</ele>
        <time>2010-01-01T01:22:11Z</time>
      </trkpt>
      <trkpt lat="31.78432630" lon="35.11346340">
        <ele>710.00000</ele>
        <time>2010-01-01T01:23:03Z</time>
      </trkpt>
      <trkpt lat="31.78482330" lon="35.11345800">
        <ele>707.00000</ele>
        <time>2010-01-01T01:23:23Z</time>
      </trkpt>
      <trkpt lat="31.78556660" lon="35.11308780">
        <ele>700.00000</ele>
        <time>2010-01-01T01:23:55Z</time>
      </trkpt>
      <trkpt lat="31.78642840" lon="35.11270160">
        <ele>686.00000</ele>
        <time>2010-01-01T01:24:32Z</time>
      </trkpt>
      <trkpt lat="31.78791940" lon="35.11215440">
        <ele>651.00000</ele>
        <time>2010-01-01T01:25:34Z</time>
      </trkpt>
      <trkpt lat="31.78849850" lon="35.11173060">
        <ele>638.00000</ele>
        <time>2010-01-01T01:26:02Z</time>
      </trkpt>
      <trkpt lat="31.78884510" lon="35.11147850">
        <ele>629.00000</ele>
        <time>2010-01-01T01:26:18Z</time>
      </trkpt>
      <trkpt lat="31.78906850" lon="35.11112450">
        <ele>624.00000</ele>
        <time>2010-01-01T01:26:33Z</time>
      </trkpt>
      <trkpt lat="31.78914600" lon="35.11057730">
        <ele>624.00000</ele>
        <time>2010-01-01T01:26:52Z</time>
      </trkpt>
      <trkpt lat="31.78918250" lon="35.10997650">
        <ele>625.00000</ele>
        <time>2010-01-01T01:27:12Z</time>
      </trkpt>
      <trkpt lat="31.79000320" lon="35.10969750">
        <ele>615.00000</ele>
        <time>2010-01-01T01:27:47Z</time>
      </trkpt>
      <trkpt lat="31.79086500" lon="35.10951510">
        <ele>604.00000</ele>
        <time>2010-01-01T01:28:22Z</time>
      </trkpt>
      <trkpt lat="31.79216910" lon="35.10894650">
        <ele>589.00000</ele>
        <time>2010-01-01T01:29:17Z</time>
      </trkpt>
      <trkpt lat="31.79251560" lon="35.10861390">
        <ele>582.00000</ele>
        <time>2010-01-01T01:29:35Z</time>
      </trkpt>
      <trkpt lat="31.79291230" lon="35.10755180">
        <ele>570.00000</ele>
        <time>2010-01-01T01:30:15Z</time>
      </trkpt>
      <trkpt lat="31.79285300" lon="35.10713870">
        <ele>569.00000</ele>
        <time>2010-01-01T01:30:29Z</time>
      </trkpt>
      <trkpt lat="31.79262050" lon="35.10658080">
        <ele>567.00000</ele>
        <time>2010-01-01T01:30:50Z</time>
      </trkpt>
      <trkpt lat="31.79244260" lon="35.10588880">
        <ele>564.00000</ele>
        <time>2010-01-01T01:31:15Z</time>
      </trkpt>
      <trkpt lat="31.79239700" lon="35.10491250">
        <ele>559.00000</ele>
        <time>2010-01-01T01:31:48Z</time>
      </trkpt>
      <trkpt lat="31.79250650" lon="35.10420970">
        <ele>558.00000</ele>
        <time>2010-01-01T01:32:12Z</time>
      </trkpt>
      <trkpt lat="31.79249280" lon="35.10346410">
        <ele>559.00000</ele>
        <time>2010-01-01T01:32:38Z</time>
      </trkpt>
      <trkpt lat="31.79282560" lon="35.10330850">
        <ele>567.00000</ele>
        <time>2010-01-01T01:32:52Z</time>
      </trkpt>
      <trkpt lat="31.79284390" lon="35.10269160">
        <ele>570.00000</ele>
        <time>2010-01-01T01:33:13Z</time>
      </trkpt>
      <trkpt lat="31.79277090" lon="35.10230540">
        <ele>571.00000</ele>
        <time>2010-01-01T01:33:26Z</time>
      </trkpt>
      <trkpt lat="31.79270710" lon="35.10191910">
        <ele>575.00000</ele>
        <time>2010-01-01T01:33:40Z</time>
      </trkpt>
      <trkpt lat="31.79236970" lon="35.10108230">
        <ele>579.00000</ele>
        <time>2010-01-01T01:34:11Z</time>
      </trkpt>
      <trkpt lat="31.79198670" lon="35.09961780">
        <ele>590.00000</ele>
        <time>2010-01-01T01:35:03Z</time>
      </trkpt>
      <trkpt lat="31.79200950" lon="35.09929060">
        <ele>594.00000</ele>
        <time>2010-01-01T01:35:15Z</time>
      </trkpt>
      <trkpt lat="31.79224200" lon="35.09960170">
        <ele>597.00000</ele>
        <time>2010-01-01T01:35:29Z</time>
      </trkpt>
      <trkpt lat="31.79231500" lon="35.09896870">
        <ele>604.00000</ele>
        <time>2010-01-01T01:35:50Z</time>
      </trkpt>
      <trkpt lat="31.79244260" lon="35.09903310">
        <ele>608.00000</ele>
        <time>2010-01-01T01:35:56Z</time>
      </trkpt>
      <trkpt lat="31.79247910" lon="35.09864680">
        <ele>610.00000</ele>
        <time>2010-01-01T01:36:09Z</time>
      </trkpt>
      <trkpt lat="31.79268880" lon="35.09813180">
        <ele>613.00000</ele>
        <time>2010-01-01T01:36:29Z</time>
      </trkpt>
      <trkpt lat="31.79301710" lon="35.09779930">
        <ele>612.00000</ele>
        <time>2010-01-01T01:36:46Z</time>
      </trkpt>
      <trkpt lat="31.79344570" lon="35.09773490">
        <ele>613.00000</ele>
        <time>2010-01-01T01:37:03Z</time>
      </trkpt>
      <trkpt lat="31.79426640" lon="35.09812110">
        <ele>624.00000</ele>
        <time>2010-01-01T01:37:39Z</time>
      </trkpt>
      <trkpt lat="31.79489560" lon="35.09806750">
        <ele>630.00000</ele>
        <time>2010-01-01T01:38:04Z</time>
      </trkpt>
      <trkpt lat="31.79486830" lon="35.09818550">
        <ele>633.00000</ele>
        <time>2010-01-01T01:38:08Z</time>
      </trkpt>
      <trkpt lat="31.79443970" lon="35.09852880">
        <ele>636.00000</ele>
        <time>2010-01-01T01:38:29Z</time>
      </trkpt>
      <trkpt lat="31.79408410" lon="35.09896870">
        <ele>638.00000</ele>
        <time>2010-01-01T01:38:49Z</time>
      </trkpt>
      <trkpt lat="31.79463120" lon="35.09879700">
        <ele>646.00000</ele>
        <time>2010-01-01T01:39:12Z</time>
      </trkpt>
      <trkpt lat="31.79498680" lon="35.09844300">
        <ele>643.00000</ele>
        <time>2010-01-01T01:39:31Z</time>
      </trkpt>
      <trkpt lat="31.79539720" lon="35.09823910">
        <ele>647.00000</ele>
        <time>2010-01-01T01:39:49Z</time>
      </trkpt>
      <trkpt lat="31.79611760" lon="35.09761690">
        <ele>641.00000</ele>
        <time>2010-01-01T01:40:24Z</time>
      </trkpt>
      <trkpt lat="31.79661000" lon="35.09728430">
        <ele>638.00000</ele>
        <time>2010-01-01T01:40:47Z</time>
      </trkpt>
      <trkpt lat="31.79713890" lon="35.09721450">
        <ele>636.00000</ele>
        <time>2010-01-01T01:41:08Z</time>
      </trkpt>
      <trkpt lat="31.79788660" lon="35.09717700">
        <ele>629.00000</ele>
        <time>2010-01-01T01:41:38Z</time>
      </trkpt>
      <trkpt lat="31.79869810" lon="35.09745590">
        <ele>627.00000</ele>
        <time>2010-01-01T01:42:12Z</time>
      </trkpt>
      <trkpt lat="31.79938200" lon="35.09790650">
        <ele>632.00000</ele>
        <time>2010-01-01T01:42:44Z</time>
      </trkpt>
      <trkpt lat="31.79966010" lon="35.09818550">
        <ele>636.00000</ele>
        <time>2010-01-01T01:42:58Z</time>
      </trkpt>
      <trkpt lat="31.79983340" lon="35.09874880">
        <ele>640.00000</ele>
        <time>2010-01-01T01:43:19Z</time>
      </trkpt>
      <trkpt lat="31.79981970" lon="35.09910280">
        <ele>642.00000</ele>
        <time>2010-01-01T01:43:31Z</time>
      </trkpt>
      <trkpt lat="31.79991090" lon="35.09933880">
        <ele>642.00000</ele>
        <time>2010-01-01T01:43:39Z</time>
      </trkpt>
      <trkpt lat="31.79994740" lon="35.09999870">
        <ele>646.00000</ele>
        <time>2010-01-01T01:44:02Z</time>
      </trkpt>
      <trkpt lat="31.80031210" lon="35.10048150">
        <ele>660.00000</ele>
        <time>2010-01-01T01:44:24Z</time>
      </trkpt>
      <trkpt lat="31.79998380" lon="35.10057800">
        <ele>656.00000</ele>
        <time>2010-01-01T01:44:37Z</time>
      </trkpt>
      <trkpt lat="31.80033940" lon="35.10085700">
        <ele>665.00000</ele>
        <time>2010-01-01T01:44:55Z</time>
      </trkpt>
      <trkpt lat="31.80047620" lon="35.10107150">
        <ele>671.00000</ele>
        <time>2010-01-01T01:45:04Z</time>
      </trkpt>
      <trkpt lat="31.79938200" lon="35.10073900">
        <ele>668.00000</ele>
        <time>2010-01-01T01:45:49Z</time>
      </trkpt>
      <trkpt lat="31.79967380" lon="35.10100720">
        <ele>669.00000</ele>
        <time>2010-01-01T01:46:04Z</time>
      </trkpt>
      <trkpt lat="31.80067680" lon="35.10133980">
        <ele>677.00000</ele>
        <time>2010-01-01T01:46:45Z</time>
      </trkpt>
      <trkpt lat="31.80041240" lon="35.10150070">
        <ele>678.00000</ele>
        <time>2010-01-01T01:46:57Z</time>
      </trkpt>
      <trkpt lat="31.79973760" lon="35.10146850">
        <ele>679.00000</ele>
        <time>2010-01-01T01:47:24Z</time>
      </trkpt>
      <trkpt lat="31.79931820" lon="35.10140410">
        <ele>682.00000</ele>
        <time>2010-01-01T01:47:41Z</time>
      </trkpt>
      <trkpt lat="31.79987440" lon="35.10172600">
        <ele>684.00000</ele>
        <time>2010-01-01T01:48:06Z</time>
      </trkpt>
      <trkpt lat="31.80033030" lon="35.10189770">
        <ele>686.00000</ele>
        <time>2010-01-01T01:48:25Z</time>
      </trkpt>
      <trkpt lat="31.79960090" lon="35.10188690">
        <ele>690.00000</ele>
        <time>2010-01-01T01:48:55Z</time>
      </trkpt>
      <trkpt lat="31.79888960" lon="35.10164020">
        <ele>692.00000</ele>
        <time>2010-01-01T01:49:24Z</time>
      </trkpt>
      <trkpt lat="31.79875280" lon="35.10173670">
        <ele>695.00000</ele>
        <time>2010-01-01T01:49:31Z</time>
      </trkpt>
      <trkpt lat="31.79881670" lon="35.10187620">
        <ele>696.00000</ele>
        <time>2010-01-01T01:49:36Z</time>
      </trkpt>
      <trkpt lat="31.80024830" lon="35.10227320">
        <ele>695.00000</ele>
        <time>2010-01-01T01:50:35Z</time>
      </trkpt>
      <trkpt lat="31.80074980" lon="35.10244480">
        <ele>696.00000</ele>
        <time>2010-01-01T01:50:56Z</time>
      </trkpt>
      <trkpt lat="31.80095040" lon="35.10259500">
        <ele>697.00000</ele>
        <time>2010-01-01T01:51:05Z</time>
      </trkpt>
      <trkpt lat="31.80105070" lon="35.10285250">
        <ele>701.00000</ele>
        <time>2010-01-01T01:51:15Z</time>
      </trkpt>
      <trkpt lat="31.80106890" lon="35.10314220">
        <ele>706.00000</ele>
        <time>2010-01-01T01:51:25Z</time>
      </trkpt>
      <trkpt lat="31.80078620" lon="35.10342120">
        <ele>711.00000</ele>
        <time>2010-01-01T01:51:40Z</time>
      </trkpt>
      <trkpt lat="31.80043060" lon="35.10400050">
        <ele>716.00000</ele>
        <time>2010-01-01T01:52:04Z</time>
      </trkpt>
      <trkpt lat="31.79988350" lon="35.10385030">
        <ele>715.00000</ele>
        <time>2010-01-01T01:52:26Z</time>
      </trkpt>
      <trkpt lat="31.79965560" lon="35.10394690">
        <ele>715.00000</ele>
        <time>2010-01-01T01:52:36Z</time>
      </trkpt>
      <trkpt lat="31.79950060" lon="35.10426870">
        <ele>713.00000</ele>
        <time>2010-01-01T01:52:49Z</time>
      </trkpt>
      <trkpt lat="31.79926350" lon="35.10541670">
        <ele>700.00000</ele>
        <time>2010-01-01T01:53:29Z</time>
      </trkpt>
      <trkpt lat="31.79884400" lon="35.10527720">
        <ele>697.00000</ele>
        <time>2010-01-01T01:53:46Z</time>
      </trkpt>
      <trkpt lat="31.79844280" lon="35.10491250">
        <ele>696.00000</ele>
        <time>2010-01-01T01:54:07Z</time>
      </trkpt>
      <trkpt lat="31.79858870" lon="35.10559910">
        <ele>691.00000</ele>
        <time>2010-01-01T01:54:31Z</time>
      </trkpt>
      <trkpt lat="31.79845190" lon="35.10569570">
        <ele>689.00000</ele>
        <time>2010-01-01T01:54:37Z</time>
      </trkpt>
      <trkpt lat="31.79803250" lon="35.10576000">
        <ele>684.00000</ele>
        <time>2010-01-01T01:54:54Z</time>
      </trkpt>
      <trkpt lat="31.79787750" lon="35.10556690">
        <ele>683.00000</ele>
        <time>2010-01-01T01:55:03Z</time>
      </trkpt>
      <trkpt lat="31.79775890" lon="35.10515920">
        <ele>682.00000</ele>
        <time>2010-01-01T01:55:18Z</time>
      </trkpt>
      <trkpt lat="31.79756740" lon="35.10519140">
        <ele>679.00000</ele>
        <time>2010-01-01T01:55:25Z</time>
      </trkpt>
      <trkpt lat="31.79723920" lon="35.10560980">
        <ele>672.00000</ele>
        <time>2010-01-01T01:55:45Z</time>
      </trkpt>
      <trkpt lat="31.79717530" lon="35.10591030">
        <ele>670.00000</ele>
        <time>2010-01-01T01:55:55Z</time>
      </trkpt>
      <trkpt lat="31.79740330" lon="35.10642520">
        <ele>667.00000</ele>
        <time>2010-01-01T01:56:15Z</time>
      </trkpt>
      <trkpt lat="31.79758570" lon="35.10663980">
        <ele>666.00000</ele>
        <time>2010-01-01T01:56:25Z</time>
      </trkpt>
      <trkpt lat="31.79782270" lon="35.10659690">
        <ele>668.00000</ele>
        <time>2010-01-01T01:56:35Z</time>
      </trkpt>
      <trkpt lat="31.79798690" lon="35.10672560">
        <ele>666.00000</ele>
        <time>2010-01-01T01:56:43Z</time>
      </trkpt>
      <trkpt lat="31.79840630" lon="35.10681150">
        <ele>665.00000</ele>
        <time>2010-01-01T01:57:00Z</time>
      </trkpt>
      <trkpt lat="31.79836070" lon="35.10691880">
        <ele>662.00000</ele>
        <time>2010-01-01T01:57:04Z</time>
      </trkpt>
      <trkpt lat="31.79791390" lon="35.10705820">
        <ele>655.00000</ele>
        <time>2010-01-01T01:57:23Z</time>
      </trkpt>
      <trkpt lat="31.79835160" lon="35.10734790">
        <ele>650.00000</ele>
        <time>2010-01-01T01:57:43Z</time>
      </trkpt>
      <trkpt lat="31.79818750" lon="35.10760540">
        <ele>644.00000</ele>
        <time>2010-01-01T01:57:54Z</time>
      </trkpt>
      <trkpt lat="31.79839720" lon="35.10789510">
        <ele>646.00000</ele>
        <time>2010-01-01T01:58:07Z</time>
      </trkpt>
      <trkpt lat="31.79828780" lon="35.10817400">
        <ele>644.00000</ele>
        <time>2010-01-01T01:58:17Z</time>
      </trkpt>
      <trkpt lat="31.79810540" lon="35.10819550">
        <ele>640.00000</ele>
        <time>2010-01-01T01:58:24Z</time>
      </trkpt>
      <trkpt lat="31.79794130" lon="35.10793800">
        <ele>638.00000</ele>
        <time>2010-01-01T01:58:35Z</time>
      </trkpt>
      <trkpt lat="31.79693820" lon="35.10764830">
        <ele>629.00000</ele>
        <time>2010-01-01T01:59:17Z</time>
      </trkpt>
      <trkpt lat="31.79629080" lon="35.10717630">
        <ele>629.00000</ele>
        <time>2010-01-01T01:59:47Z</time>
      </trkpt>
      <trkpt lat="31.79592610" lon="35.10701530">
        <ele>625.00000</ele>
        <time>2010-01-01T02:00:03Z</time>
      </trkpt>
      <trkpt lat="31.79585310" lon="35.10710120">
        <ele>621.00000</ele>
        <time>2010-01-01T02:00:07Z</time>
      </trkpt>
      <trkpt lat="31.79571630" lon="35.10698310">
        <ele>620.00000</ele>
        <time>2010-01-01T02:00:14Z</time>
      </trkpt>
      <trkpt lat="31.79543370" lon="35.10698310">
        <ele>611.00000</ele>
        <time>2010-01-01T02:00:25Z</time>
      </trkpt>
      <trkpt lat="31.79534250" lon="35.10705820">
        <ele>608.00000</ele>
        <time>2010-01-01T02:00:29Z</time>
      </trkpt>
      <trkpt lat="31.79557040" lon="35.10745520">
        <ele>607.00000</ele>
        <time>2010-01-01T02:00:46Z</time>
      </trkpt>
      <trkpt lat="31.79488650" lon="35.10735860">
        <ele>591.00000</ele>
        <time>2010-01-01T02:01:13Z</time>
      </trkpt>
      <trkpt lat="31.79516920" lon="35.10798090">
        <ele>586.00000</ele>
        <time>2010-01-01T02:01:37Z</time>
      </trkpt>
      <trkpt lat="31.79471330" lon="35.10744980">
        <ele>585.00000</ele>
        <time>2010-01-01T02:02:03Z</time>
      </trkpt>
      <trkpt lat="31.79450350" lon="35.10692950">
        <ele>584.00000</ele>
        <time>2010-01-01T02:02:23Z</time>
      </trkpt>
      <trkpt lat="31.79434850" lon="35.10644670">
        <ele>583.00000</ele>
        <time>2010-01-01T02:02:40Z</time>
      </trkpt>
      <trkpt lat="31.79435310" lon="35.10627500">
        <ele>583.00000</ele>
        <time>2010-01-01T02:02:46Z</time>
      </trkpt>
      <trkpt lat="31.79429840" lon="35.10610870">
        <ele>582.00000</ele>
        <time>2010-01-01T02:02:52Z</time>
      </trkpt>
      <trkpt lat="31.79404760" lon="35.10614090">
        <ele>576.00000</ele>
        <time>2010-01-01T02:03:02Z</time>
      </trkpt>
      <trkpt lat="31.79395640" lon="35.10632870">
        <ele>574.00000</ele>
        <time>2010-01-01T02:03:10Z</time>
      </trkpt>
      <trkpt lat="31.79359160" lon="35.10659690">
        <ele>567.00000</ele>
        <time>2010-01-01T02:03:27Z</time>
      </trkpt>
      <trkpt lat="31.79334540" lon="35.10666130">
        <ele>562.00000</ele>
        <time>2010-01-01T02:03:37Z</time>
      </trkpt>
      <trkpt lat="31.79309010" lon="35.10670950">
        <ele>564.00000</ele>
        <time>2010-01-01T02:03:47Z</time>
      </trkpt>
      <trkpt lat="31.79260220" lon="35.10651640">
        <ele>566.00000</ele>
        <time>2010-01-01T02:04:08Z</time>
      </trkpt>
      <trkpt lat="31.79244260" lon="35.10573860">
        <ele>563.00000</ele>
        <time>2010-01-01T02:04:35Z</time>
      </trkpt>
      <trkpt lat="31.79239700" lon="35.10463350">
        <ele>560.00000</ele>
        <time>2010-01-01T02:05:13Z</time>
      </trkpt>
      <trkpt lat="31.79249730" lon="35.10409710">
        <ele>558.00000</ele>
        <time>2010-01-01T02:05:31Z</time>
      </trkpt>
      <trkpt lat="31.79250650" lon="35.10341040">
        <ele>559.00000</ele>
        <time>2010-01-01T02:05:55Z</time>
      </trkpt>
      <trkpt lat="31.79243350" lon="35.10278820">
        <ele>560.00000</ele>
        <time>2010-01-01T02:06:16Z</time>
      </trkpt>
      <trkpt lat="31.79217820" lon="35.10220880">
        <ele>564.00000</ele>
        <time>2010-01-01T02:06:38Z</time>
      </trkpt>
      <trkpt lat="31.79166750" lon="35.10151140">
        <ele>558.00000</ele>
        <time>2010-01-01T02:07:10Z</time>
      </trkpt>
      <trkpt lat="31.79105650" lon="35.10097500">
        <ele>559.00000</ele>
        <time>2010-01-01T02:07:40Z</time>
      </trkpt>
      <trkpt lat="31.79039080" lon="35.10058870">
        <ele>561.00000</ele>
        <time>2010-01-01T02:08:10Z</time>
      </trkpt>
      <trkpt lat="31.78979810" lon="35.10039030">
        <ele>571.00000</ele>
        <time>2010-01-01T02:08:34Z</time>
      </trkpt>
      <trkpt lat="31.78956100" lon="35.09999870">
        <ele>574.00000</ele>
        <time>2010-01-01T02:08:51Z</time>
      </trkpt>
      <trkpt lat="31.78936940" lon="35.09887210">
        <ele>575.00000</ele>
        <time>2010-01-01T02:09:30Z</time>
      </trkpt>
      <trkpt lat="31.78901380" lon="35.09807820">
        <ele>581.00000</ele>
        <time>2010-01-01T02:10:00Z</time>
      </trkpt>
      <trkpt lat="31.78857610" lon="35.09767050">
        <ele>588.00000</ele>
        <time>2010-01-01T02:10:23Z</time>
      </trkpt>
      <trkpt lat="31.78750910" lon="35.09672100">
        <ele>606.00000</ele>
        <time>2010-01-01T02:11:16Z</time>
      </trkpt>
      <trkpt lat="31.78749080" lon="35.09642060">
        <ele>608.00000</ele>
        <time>2010-01-01T02:11:27Z</time>
      </trkpt>
      <trkpt lat="31.78756830" lon="35.09626500">
        <ele>606.00000</ele>
        <time>2010-01-01T02:11:33Z</time>
      </trkpt>
      <trkpt lat="31.78772340" lon="35.09581980">
        <ele>604.00000</ele>
        <time>2010-01-01T02:11:49Z</time>
      </trkpt>
      <trkpt lat="31.78771880" lon="35.09556770">
        <ele>608.00000</ele>
        <time>2010-01-01T02:11:58Z</time>
      </trkpt>
      <trkpt lat="31.78778270" lon="35.09524580">
        <ele>609.00000</ele>
        <time>2010-01-01T02:12:09Z</time>
      </trkpt>
      <trkpt lat="31.78776440" lon="35.09488640">
        <ele>615.00000</ele>
        <time>2010-01-01T02:12:21Z</time>
      </trkpt>
      <trkpt lat="31.78787840" lon="35.09452700">
        <ele>621.00000</ele>
        <time>2010-01-01T02:12:34Z</time>
      </trkpt>
      <trkpt lat="31.78843930" lon="35.09453770">
        <ele>609.00000</ele>
        <time>2010-01-01T02:12:57Z</time>
      </trkpt>
      <trkpt lat="31.78967950" lon="35.09385640">
        <ele>614.00000</ele>
        <time>2010-01-01T02:13:52Z</time>
      </trkpt>
      <trkpt lat="31.79038630" lon="35.09360960">
        <ele>612.00000</ele>
        <time>2010-01-01T02:14:21Z</time>
      </trkpt>
      <trkpt lat="31.79109300" lon="35.09329310">
        <ele>613.00000</ele>
        <time>2010-01-01T02:14:51Z</time>
      </trkpt>
      <trkpt lat="31.79280740" lon="35.09346480">
        <ele>589.00000</ele>
        <time>2010-01-01T02:16:00Z</time>
      </trkpt>
      <trkpt lat="31.79321780" lon="35.09294980">
        <ele>590.00000</ele>
        <time>2010-01-01T02:16:24Z</time>
      </trkpt>
      <trkpt lat="31.79329980" lon="35.09280500">
        <ele>588.00000</ele>
        <time>2010-01-01T02:16:30Z</time>
      </trkpt>
      <trkpt lat="31.79331810" lon="35.09263870">
        <ele>588.00000</ele>
        <time>2010-01-01T02:16:36Z</time>
      </trkpt>
      <trkpt lat="31.79316300" lon="35.09262800">
        <ele>591.00000</ele>
        <time>2010-01-01T02:16:42Z</time>
      </trkpt>
      <trkpt lat="31.79290770" lon="35.09228460">
        <ele>596.00000</ele>
        <time>2010-01-01T02:16:58Z</time>
      </trkpt>
      <trkpt lat="31.79234690" lon="35.09131900">
        <ele>613.00000</ele>
        <time>2010-01-01T02:17:37Z</time>
      </trkpt>
      <trkpt lat="31.79199120" lon="35.09054660">
        <ele>622.00000</ele>
        <time>2010-01-01T02:18:07Z</time>
      </trkpt>
      <trkpt lat="31.79184080" lon="35.09020320">
        <ele>624.00000</ele>
        <time>2010-01-01T02:18:20Z</time>
      </trkpt>
      <trkpt lat="31.79160820" lon="35.08991360">
        <ele>630.00000</ele>
        <time>2010-01-01T02:18:34Z</time>
      </trkpt>
      <trkpt lat="31.79121610" lon="35.08906060">
        <ele>632.00000</ele>
        <time>2010-01-01T02:19:07Z</time>
      </trkpt>
      <trkpt lat="31.79089690" lon="35.08855100">
        <ele>640.00000</ele>
        <time>2010-01-01T02:19:28Z</time>
      </trkpt>
      <trkpt lat="31.79102460" lon="35.08772490">
        <ele>638.00000</ele>
        <time>2010-01-01T02:19:57Z</time>
      </trkpt>
      <trkpt lat="31.79105200" lon="35.08725820">
        <ele>639.00000</ele>
        <time>2010-01-01T02:20:13Z</time>
      </trkpt>
      <trkpt lat="31.79094710" lon="35.08690950">
        <ele>643.00000</ele>
        <time>2010-01-01T02:20:26Z</time>
      </trkpt>
      <trkpt lat="31.79079210" lon="35.08650720">
        <ele>647.00000</ele>
        <time>2010-01-01T02:20:41Z</time>
      </trkpt>
      <trkpt lat="31.79061420" lon="35.08626580">
        <ele>649.00000</ele>
        <time>2010-01-01T02:20:51Z</time>
      </trkpt>
      <trkpt lat="31.79006250" lon="35.08536450">
        <ele>655.00000</ele>
        <time>2010-01-01T02:21:29Z</time>
      </trkpt>
      <trkpt lat="31.78989840" lon="35.08463500">
        <ele>650.00000</ele>
        <time>2010-01-01T02:21:55Z</time>
      </trkpt>
      <trkpt lat="31.78967040" lon="35.08401810">
        <ele>647.00000</ele>
        <time>2010-01-01T02:22:18Z</time>
      </trkpt>
      <trkpt lat="31.78928280" lon="35.08349770">
        <ele>645.00000</ele>
        <time>2010-01-01T02:22:41Z</time>
      </trkpt>
      <trkpt lat="31.78890440" lon="35.08324020">
        <ele>646.00000</ele>
        <time>2010-01-01T02:22:59Z</time>
      </trkpt>
      <trkpt lat="31.78804710" lon="35.08302560">
        <ele>656.00000</ele>
        <time>2010-01-01T02:23:34Z</time>
      </trkpt>
      <trkpt lat="31.78711690" lon="35.08258580">
        <ele>656.00000</ele>
        <time>2010-01-01T02:24:14Z</time>
      </trkpt>
      <trkpt lat="31.78642380" lon="35.08198490">
        <ele>644.00000</ele>
        <time>2010-01-01T02:24:49Z</time>
      </trkpt>
      <trkpt lat="31.78619580" lon="35.08183470">
        <ele>639.00000</ele>
        <time>2010-01-01T02:24:59Z</time>
      </trkpt>
      <trkpt lat="31.78578540" lon="35.08162020">
        <ele>631.00000</ele>
        <time>2010-01-01T02:25:17Z</time>
      </trkpt>
      <trkpt lat="31.78587660" lon="35.08111590">
        <ele>620.00000</ele>
        <time>2010-01-01T02:25:35Z</time>
      </trkpt>
      <trkpt lat="31.78614110" lon="35.08101940">
        <ele>617.00000</ele>
        <time>2010-01-01T02:25:46Z</time>
      </trkpt>
      <trkpt lat="31.78572160" lon="35.08023610">
        <ele>598.00000</ele>
        <time>2010-01-01T02:26:17Z</time>
      </trkpt>
      <trkpt lat="31.78579460" lon="35.07937780">
        <ele>587.00000</ele>
        <time>2010-01-01T02:26:46Z</time>
      </trkpt>
      <trkpt lat="31.78569420" lon="35.07851950">
        <ele>584.00000</ele>
        <time>2010-01-01T02:27:16Z</time>
      </trkpt>
      <trkpt lat="31.78558940" lon="35.07861070">
        <ele>584.00000</ele>
        <time>2010-01-01T02:27:21Z</time>
      </trkpt>
      <trkpt lat="31.78465460" lon="35.08061170">
        <ele>574.00000</ele>
        <time>2010-01-01T02:28:39Z</time>
      </trkpt>
      <trkpt lat="31.78378360" lon="35.08202790">
        <ele>576.00000</ele>
        <time>2010-01-01T02:29:38Z</time>
      </trkpt>
      <trkpt lat="31.78304950" lon="35.08313830">
        <ele>580.00000</ele>
        <time>2010-01-01T02:30:26Z</time>
      </trkpt>
      <trkpt lat="31.78263910" lon="35.08419510">
        <ele>577.00000</ele>
        <time>2010-01-01T02:31:06Z</time>
      </trkpt>
      <trkpt lat="31.78245670" lon="35.08499970">
        <ele>578.00000</ele>
        <time>2010-01-01T02:31:34Z</time>
      </trkpt>
      <trkpt lat="31.78220130" lon="35.08489780">
        <ele>581.00000</ele>
        <time>2010-01-01T02:31:45Z</time>
      </trkpt>
      <trkpt lat="31.78203260" lon="35.08506950">
        <ele>584.00000</ele>
        <time>2010-01-01T02:31:54Z</time>
      </trkpt>
      <trkpt lat="31.78070100" lon="35.08509630">
        <ele>605.00000</ele>
        <time>2010-01-01T02:32:47Z</time>
      </trkpt>
      <trkpt lat="31.78018120" lon="35.08533230">
        <ele>612.00000</ele>
        <time>2010-01-01T02:33:09Z</time>
      </trkpt>
      <trkpt lat="31.77957470" lon="35.08575610">
        <ele>614.00000</ele>
        <time>2010-01-01T02:33:38Z</time>
      </trkpt>
      <trkpt lat="31.77946520" lon="35.08620140">
        <ele>615.00000</ele>
        <time>2010-01-01T02:33:53Z</time>
      </trkpt>
      <trkpt lat="31.77922810" lon="35.08691480">
        <ele>617.00000</ele>
        <time>2010-01-01T02:34:19Z</time>
      </trkpt>
      <trkpt lat="31.77921440" lon="35.08723670">
        <ele>620.00000</ele>
        <time>2010-01-01T02:34:30Z</time>
      </trkpt>
      <trkpt lat="31.77935120" lon="35.08770340">
        <ele>628.00000</ele>
        <time>2010-01-01T02:34:47Z</time>
      </trkpt>
      <trkpt lat="31.77940140" lon="35.08798240">
        <ele>632.00000</ele>
        <time>2010-01-01T02:34:57Z</time>
      </trkpt>
      <trkpt lat="31.77941510" lon="35.08842220">
        <ele>637.00000</ele>
        <time>2010-01-01T02:35:12Z</time>
      </trkpt>
      <trkpt lat="31.77950170" lon="35.08867440">
        <ele>641.00000</ele>
        <time>2010-01-01T02:35:21Z</time>
      </trkpt>
      <trkpt lat="31.77947440" lon="35.08910350">
        <ele>645.00000</ele>
        <time>2010-01-01T02:35:36Z</time>
      </trkpt>
      <trkpt lat="31.77930110" lon="35.08915720">
        <ele>644.00000</ele>
        <time>2010-01-01T02:35:43Z</time>
      </trkpt>
      <trkpt lat="31.77909590" lon="35.08861540">
        <ele>638.00000</ele>
        <time>2010-01-01T02:36:03Z</time>
      </trkpt>
      <trkpt lat="31.77858060" lon="35.08784290">
        <ele>639.00000</ele>
        <time>2010-01-01T02:36:37Z</time>
      </trkpt>
      <trkpt lat="31.77796040" lon="35.08759080">
        <ele>651.00000</ele>
        <time>2010-01-01T02:37:03Z</time>
      </trkpt>
      <trkpt lat="31.77787370" lon="35.08734400">
        <ele>652.00000</ele>
        <time>2010-01-01T02:37:12Z</time>
      </trkpt>
      <trkpt lat="31.77810630" lon="35.08591170">
        <ele>650.00000</ele>
        <time>2010-01-01T02:38:02Z</time>
      </trkpt>
      <trkpt lat="31.77853950" lon="35.08525190">
        <ele>650.00000</ele>
        <time>2010-01-01T02:38:30Z</time>
      </trkpt>
      <trkpt lat="31.77861700" lon="35.08508560">
        <ele>651.00000</ele>
        <time>2010-01-01T02:38:36Z</time>
      </trkpt>
      <trkpt lat="31.77934210" lon="35.08458670">
        <ele>647.00000</ele>
        <time>2010-01-01T02:39:10Z</time>
      </trkpt>
      <trkpt lat="31.77976160" lon="35.08414140">
        <ele>650.00000</ele>
        <time>2010-01-01T02:39:33Z</time>
      </trkpt>
      <trkpt lat="31.78001250" lon="35.08395370">
        <ele>649.00000</ele>
        <time>2010-01-01T02:39:45Z</time>
      </trkpt>
      <trkpt lat="31.78028150" lon="35.08353530">
        <ele>651.00000</ele>
        <time>2010-01-01T02:40:02Z</time>
      </trkpt>
      <trkpt lat="31.78046850" lon="35.08281110">
        <ele>657.00000</ele>
        <time>2010-01-01T02:40:28Z</time>
      </trkpt>
      <trkpt lat="31.78042290" lon="35.08249460">
        <ele>661.00000</ele>
        <time>2010-01-01T02:40:39Z</time>
      </trkpt>
      <trkpt lat="31.78055970" lon="35.08184010">
        <ele>659.00000</ele>
        <time>2010-01-01T02:41:02Z</time>
      </trkpt>
      <trkpt lat="31.78045020" lon="35.08173820">
        <ele>662.00000</ele>
        <time>2010-01-01T02:41:08Z</time>
      </trkpt>
      <trkpt lat="31.78012190" lon="35.08175430">
        <ele>669.00000</ele>
        <time>2010-01-01T02:41:21Z</time>
      </trkpt>
      <trkpt lat="31.77967500" lon="35.08161480">
        <ele>675.00000</ele>
        <time>2010-01-01T02:41:39Z</time>
      </trkpt>
      <trkpt lat="31.77871740" lon="35.08164700">
        <ele>681.00000</ele>
        <time>2010-01-01T02:42:18Z</time>
      </trkpt>
      <trkpt lat="31.77774150" lon="35.08157730">
        <ele>677.00000</ele>
        <time>2010-01-01T02:42:57Z</time>
      </trkpt>
      <trkpt lat="31.77693430" lon="35.08188840">
        <ele>678.00000</ele>
        <time>2010-01-01T02:43:31Z</time>
      </trkpt>
      <trkpt lat="31.77648280" lon="35.08197420">
        <ele>673.00000</ele>
        <time>2010-01-01T02:43:49Z</time>
      </trkpt>
      <trkpt lat="31.77626850" lon="35.08208690">
        <ele>673.00000</ele>
        <time>2010-01-01T02:43:58Z</time>
      </trkpt>
      <trkpt lat="31.77547950" lon="35.08286470">
        <ele>681.00000</ele>
        <time>2010-01-01T02:44:40Z</time>
      </trkpt>
      <trkpt lat="31.77516490" lon="35.08312220">
        <ele>682.00000</ele>
        <time>2010-01-01T02:44:55Z</time>
      </trkpt>
      <trkpt lat="31.77492770" lon="35.08322410">
        <ele>681.00000</ele>
        <time>2010-01-01T02:45:05Z</time>
      </trkpt>
      <trkpt lat="31.77456750" lon="35.08352990">
        <ele>686.00000</ele>
        <time>2010-01-01T02:45:23Z</time>
      </trkpt>
      <trkpt lat="31.77390620" lon="35.08438820">
        <ele>701.00000</ele>
        <time>2010-01-01T02:46:02Z</time>
      </trkpt>
      <trkpt lat="31.77371010" lon="35.08438280">
        <ele>703.00000</ele>
        <time>2010-01-01T02:46:10Z</time>
      </trkpt>
      <trkpt lat="31.77360060" lon="35.08425410">
        <ele>702.00000</ele>
        <time>2010-01-01T02:46:16Z</time>
      </trkpt>
      <trkpt lat="31.77362340" lon="35.08371230">
        <ele>700.00000</ele>
        <time>2010-01-01T02:46:35Z</time>
      </trkpt>
      <trkpt lat="31.77371010" lon="35.08267160">
        <ele>702.00000</ele>
        <time>2010-01-01T02:47:10Z</time>
      </trkpt>
      <trkpt lat="31.77402020" lon="35.08239260">
        <ele>693.00000</ele>
        <time>2010-01-01T02:47:26Z</time>
      </trkpt>
      <trkpt lat="31.77416160" lon="35.08222630">
        <ele>690.00000</ele>
        <time>2010-01-01T02:47:34Z</time>
      </trkpt>
      <trkpt lat="31.77430750" lon="35.08193130">
        <ele>690.00000</ele>
        <time>2010-01-01T02:47:46Z</time>
      </trkpt>
      <trkpt lat="31.77441700" lon="35.08124470">
        <ele>695.00000</ele>
        <time>2010-01-01T02:48:09Z</time>
      </trkpt>
      <trkpt lat="31.77446260" lon="35.08087450">
        <ele>698.00000</ele>
        <time>2010-01-01T02:48:22Z</time>
      </trkpt>
      <trkpt lat="31.77454920" lon="35.08035950">
        <ele>697.00000</ele>
        <time>2010-01-01T02:48:40Z</time>
      </trkpt>
      <trkpt lat="31.77451270" lon="35.07992500">
        <ele>701.00000</ele>
        <time>2010-01-01T02:48:55Z</time>
      </trkpt>
      <trkpt lat="31.77447630" lon="35.07961920">
        <ele>705.00000</ele>
        <time>2010-01-01T02:49:05Z</time>
      </trkpt>
      <trkpt lat="31.77433030" lon="35.07928130">
        <ele>711.00000</ele>
        <time>2010-01-01T02:49:18Z</time>
      </trkpt>
      <trkpt lat="31.77433490" lon="35.07908820">
        <ele>713.00000</ele>
        <time>2010-01-01T02:49:25Z</time>
      </trkpt>
      <trkpt lat="31.77444890" lon="35.07898090">
        <ele>713.00000</ele>
        <time>2010-01-01T02:49:31Z</time>
      </trkpt>
      <trkpt lat="31.77505090" lon="35.07897550">
        <ele>702.00000</ele>
        <time>2010-01-01T02:49:55Z</time>
      </trkpt>
      <trkpt lat="31.77573490" lon="35.07905600">
        <ele>692.00000</ele>
        <time>2010-01-01T02:50:22Z</time>
      </trkpt>
      <trkpt lat="31.77597660" lon="35.07881990">
        <ele>691.00000</ele>
        <time>2010-01-01T02:50:35Z</time>
      </trkpt>
      <trkpt lat="31.77617270" lon="35.07838010">
        <ele>692.00000</ele>
        <time>2010-01-01T02:50:52Z</time>
      </trkpt>
      <trkpt lat="31.77618180" lon="35.07806360">
        <ele>694.00000</ele>
        <time>2010-01-01T02:51:03Z</time>
      </trkpt>
      <trkpt lat="31.77607700" lon="35.07754860">
        <ele>700.00000</ele>
        <time>2010-01-01T02:51:21Z</time>
      </trkpt>
      <trkpt lat="31.77575320" lon="35.07629870">
        <ele>711.00000</ele>
        <time>2010-01-01T02:52:05Z</time>
      </trkpt>
      <trkpt lat="31.77549780" lon="35.07581050">
        <ele>717.00000</ele>
        <time>2010-01-01T02:52:25Z</time>
      </trkpt>
      <trkpt lat="31.77525150" lon="35.07553690">
        <ele>724.00000</ele>
        <time>2010-01-01T02:52:38Z</time>
      </trkpt>
      <trkpt lat="31.77492320" lon="35.07510780">
        <ele>732.00000</ele>
        <time>2010-01-01T02:52:58Z</time>
      </trkpt>
      <trkpt lat="31.77503260" lon="35.07434070">
        <ele>730.00000</ele>
        <time>2010-01-01T02:53:24Z</time>
      </trkpt>
      <trkpt lat="31.77526060" lon="35.07343410">
        <ele>728.00000</ele>
        <time>2010-01-01T02:53:56Z</time>
      </trkpt>
      <trkpt lat="31.77560270" lon="35.07268840">
        <ele>725.00000</ele>
        <time>2010-01-01T02:54:25Z</time>
      </trkpt>
      <trkpt lat="31.77599940" lon="35.07093960">
        <ele>719.00000</ele>
        <time>2010-01-01T02:55:27Z</time>
      </trkpt>
      <trkpt lat="31.77590370" lon="35.07052120">
        <ele>719.00000</ele>
        <time>2010-01-01T02:55:42Z</time>
      </trkpt>
      <trkpt lat="31.77714860" lon="35.06864360">
        <ele>692.00000</ele>
        <time>2010-01-01T02:57:03Z</time>
      </trkpt>
      <trkpt lat="31.77716690" lon="35.06824130">
        <ele>689.00000</ele>
        <time>2010-01-01T02:57:16Z</time>
      </trkpt>
      <trkpt lat="31.77702090" lon="35.06774780">
        <ele>684.00000</ele>
        <time>2010-01-01T02:57:34Z</time>
      </trkpt>
      <trkpt lat="31.77664240" lon="35.06659980">
        <ele>673.00000</ele>
        <time>2010-01-01T02:58:16Z</time>
      </trkpt>
      <trkpt lat="31.77677920" lon="35.06634230">
        <ele>671.00000</ele>
        <time>2010-01-01T02:58:26Z</time>
      </trkpt>
      <trkpt lat="31.77777790" lon="35.06666420">
        <ele>663.00000</ele>
        <time>2010-01-01T02:59:08Z</time>
      </trkpt>
      <trkpt lat="31.77867180" lon="35.06664270">
        <ele>653.00000</ele>
        <time>2010-01-01T02:59:44Z</time>
      </trkpt>
      <trkpt lat="31.77911410" lon="35.06721670">
        <ele>648.00000</ele>
        <time>2010-01-01T03:00:10Z</time>
      </trkpt>
      <trkpt lat="31.77910950" lon="35.06749570">
        <ele>648.00000</ele>
        <time>2010-01-01T03:00:19Z</time>
      </trkpt>
      <trkpt lat="31.78000330" lon="35.06669100">
        <ele>635.00000</ele>
        <time>2010-01-01T03:01:05Z</time>
      </trkpt>
      <trkpt lat="31.77947440" lon="35.06539820">
        <ele>634.00000</ele>
        <time>2010-01-01T03:01:53Z</time>
      </trkpt>
      <trkpt lat="31.77915060" lon="35.06488850">
        <ele>625.00000</ele>
        <time>2010-01-01T03:02:15Z</time>
      </trkpt>
      <trkpt lat="31.77897270" lon="35.06458280">
        <ele>622.00000</ele>
        <time>2010-01-01T03:02:28Z</time>
      </trkpt>
      <trkpt lat="31.77889520" lon="35.06432530">
        <ele>620.00000</ele>
        <time>2010-01-01T03:02:37Z</time>
      </trkpt>
      <trkpt lat="31.77903660" lon="35.06372450">
        <ele>614.00000</ele>
        <time>2010-01-01T03:02:58Z</time>
      </trkpt>
      <trkpt lat="31.77907760" lon="35.06378880">
        <ele>613.00000</ele>
        <time>2010-01-01T03:03:01Z</time>
      </trkpt>
      <trkpt lat="31.77906850" lon="35.06412680">
        <ele>614.00000</ele>
        <time>2010-01-01T03:03:12Z</time>
      </trkpt>
      <trkpt lat="31.77912780" lon="35.06421800">
        <ele>614.00000</ele>
        <time>2010-01-01T03:03:16Z</time>
      </trkpt>
      <trkpt lat="31.77923270" lon="35.06423410">
        <ele>613.00000</ele>
        <time>2010-01-01T03:03:20Z</time>
      </trkpt>
      <trkpt lat="31.77933300" lon="35.06410530">
        <ele>612.00000</ele>
        <time>2010-01-01T03:03:26Z</time>
      </trkpt>
      <trkpt lat="31.77929650" lon="35.06369760">
        <ele>609.00000</ele>
        <time>2010-01-01T03:03:40Z</time>
      </trkpt>
      <trkpt lat="31.77994410" lon="35.06264620">
        <ele>590.00000</ele>
        <time>2010-01-01T03:04:25Z</time>
      </trkpt>
      <trkpt lat="31.78023590" lon="35.06204000">
        <ele>584.00000</ele>
        <time>2010-01-01T03:04:48Z</time>
      </trkpt>
      <trkpt lat="31.78060530" lon="35.06156800">
        <ele>571.00000</ele>
        <time>2010-01-01T03:05:10Z</time>
      </trkpt>
      <trkpt lat="31.78085150" lon="35.06096720">
        <ele>566.00000</ele>
        <time>2010-01-01T03:05:33Z</time>
      </trkpt>
      <trkpt lat="31.78090170" lon="35.06103150">
        <ele>564.00000</ele>
        <time>2010-01-01T03:05:36Z</time>
      </trkpt>
      <trkpt lat="31.78088800" lon="35.06127830">
        <ele>563.00000</ele>
        <time>2010-01-01T03:05:44Z</time>
      </trkpt>
      <trkpt lat="31.78072380" lon="35.06187910">
        <ele>567.00000</ele>
        <time>2010-01-01T03:06:06Z</time>
      </trkpt>
      <trkpt lat="31.78084240" lon="35.06205080">
        <ele>564.00000</ele>
        <time>2010-01-01T03:06:13Z</time>
      </trkpt>
      <trkpt lat="31.78122550" lon="35.06157870">
        <ele>556.00000</ele>
        <time>2010-01-01T03:06:35Z</time>
      </trkpt>
      <trkpt lat="31.78117070" lon="35.06114950">
        <ele>555.00000</ele>
        <time>2010-01-01T03:06:50Z</time>
      </trkpt>
      <trkpt lat="31.78148080" lon="35.06080620">
        <ele>540.00000</ele>
        <time>2010-01-01T03:07:07Z</time>
      </trkpt>
      <trkpt lat="31.78172710" lon="35.05985140">
        <ele>530.00000</ele>
        <time>2010-01-01T03:07:41Z</time>
      </trkpt>
      <trkpt lat="31.78194140" lon="35.05947050">
        <ele>526.00000</ele>
        <time>2010-01-01T03:07:57Z</time>
      </trkpt>
      <trkpt lat="31.78209640" lon="35.05879460">
        <ele>520.00000</ele>
        <time>2010-01-01T03:08:21Z</time>
      </trkpt>
      <trkpt lat="31.78252050" lon="35.05779140">
        <ele>499.00000</ele>
        <time>2010-01-01T03:08:59Z</time>
      </trkpt>
      <trkpt lat="31.78234270" lon="35.05741050">
        <ele>505.00000</ele>
        <time>2010-01-01T03:09:13Z</time>
      </trkpt>
      <trkpt lat="31.78222870" lon="35.05684730">
        <ele>513.00000</ele>
        <time>2010-01-01T03:09:33Z</time>
      </trkpt>
      <trkpt lat="31.78231080" lon="35.05676150">
        <ele>512.00000</ele>
        <time>2010-01-01T03:09:38Z</time>
      </trkpt>
      <trkpt lat="31.78263910" lon="35.05680440">
        <ele>503.00000</ele>
        <time>2010-01-01T03:09:51Z</time>
      </trkpt>
      <trkpt lat="31.78293090" lon="35.05667560">
        <ele>496.00000</ele>
        <time>2010-01-01T03:10:03Z</time>
      </trkpt>
      <trkpt lat="31.78342340" lon="35.05663270">
        <ele>483.00000</ele>
        <time>2010-01-01T03:10:23Z</time>
      </trkpt>
      <trkpt lat="31.78363770" lon="35.05647180">
        <ele>480.00000</ele>
        <time>2010-01-01T03:10:33Z</time>
      </trkpt>
      <trkpt lat="31.78392500" lon="35.05609630">
        <ele>477.00000</ele>
        <time>2010-01-01T03:10:50Z</time>
      </trkpt>
      <trkpt lat="31.78396150" lon="35.05506630">
        <ele>485.00000</ele>
        <time>2010-01-01T03:11:25Z</time>
      </trkpt>
      <trkpt lat="31.78401620" lon="35.05446550">
        <ele>486.00000</ele>
        <time>2010-01-01T03:11:46Z</time>
      </trkpt>
      <trkpt lat="31.78417120" lon="35.05402560">
        <ele>482.00000</ele>
        <time>2010-01-01T03:12:02Z</time>
      </trkpt>
      <trkpt lat="31.78454520" lon="35.05348920">
        <ele>472.00000</ele>
        <time>2010-01-01T03:12:26Z</time>
      </trkpt>
      <trkpt lat="31.78513340" lon="35.05307610">
        <ele>453.00000</ele>
        <time>2010-01-01T03:12:53Z</time>
      </trkpt>
      <trkpt lat="31.78530210" lon="35.05275420">
        <ele>447.00000</ele>
        <time>2010-01-01T03:13:06Z</time>
      </trkpt>
      <trkpt lat="31.78529300" lon="35.05164380">
        <ele>441.00000</ele>
        <time>2010-01-01T03:13:44Z</time>
      </trkpt>
      <trkpt lat="31.78519720" lon="35.05143460">
        <ele>441.00000</ele>
        <time>2010-01-01T03:13:52Z</time>
      </trkpt>
      <trkpt lat="31.78485520" lon="35.05122000">
        <ele>449.00000</ele>
        <time>2010-01-01T03:14:07Z</time>
      </trkpt>
      <trkpt lat="31.78460900" lon="35.05097860">
        <ele>451.00000</ele>
        <time>2010-01-01T03:14:20Z</time>
      </trkpt>
      <trkpt lat="31.78465460" lon="35.05053870">
        <ele>443.00000</ele>
        <time>2010-01-01T03:14:35Z</time>
      </trkpt>
      <trkpt lat="31.78485520" lon="35.04986280">
        <ele>429.00000</ele>
        <time>2010-01-01T03:15:00Z</time>
      </trkpt>
      <trkpt lat="31.78497380" lon="35.05017930">
        <ele>428.00000</ele>
        <time>2010-01-01T03:15:12Z</time>
      </trkpt>
      <trkpt lat="31.78522000" lon="35.05037780">
        <ele>425.00000</ele>
        <time>2010-01-01T03:15:23Z</time>
      </trkpt>
      <trkpt lat="31.78532030" lon="35.05064600">
        <ele>426.00000</ele>
        <time>2010-01-01T03:15:33Z</time>
      </trkpt>
      <trkpt lat="31.78542980" lon="35.05068890">
        <ele>424.00000</ele>
        <time>2010-01-01T03:15:38Z</time>
      </trkpt>
      <trkpt lat="31.78576720" lon="35.05042070">
        <ele>413.00000</ele>
        <time>2010-01-01T03:15:54Z</time>
      </trkpt>
      <trkpt lat="31.78571250" lon="35.05015250">
        <ele>411.00000</ele>
        <time>2010-01-01T03:16:04Z</time>
      </trkpt>
      <trkpt lat="31.78585840" lon="35.04987350">
        <ele>406.00000</ele>
        <time>2010-01-01T03:16:15Z</time>
      </trkpt>
      <trkpt lat="31.78584930" lon="35.04852170">
        <ele>400.00000</ele>
        <time>2010-01-01T03:17:01Z</time>
      </trkpt>
      <trkpt lat="31.78604080" lon="35.04933710">
        <ele>405.00000</ele>
        <time>2010-01-01T03:17:30Z</time>
      </trkpt>
      <trkpt lat="31.78611380" lon="35.04979840">
        <ele>409.00000</ele>
        <time>2010-01-01T03:17:46Z</time>
      </trkpt>
      <trkpt lat="31.78632350" lon="35.05032420">
        <ele>412.00000</ele>
        <time>2010-01-01T03:18:05Z</time>
      </trkpt>
      <trkpt lat="31.78622320" lon="35.05084990">
        <ele>413.00000</ele>
        <time>2010-01-01T03:18:24Z</time>
      </trkpt>
      <trkpt lat="31.78615940" lon="35.05145070">
        <ele>417.00000</ele>
        <time>2010-01-01T03:18:44Z</time>
      </trkpt>
      <trkpt lat="31.78621860" lon="35.05236260">
        <ele>421.00000</ele>
        <time>2010-01-01T03:19:15Z</time>
      </trkpt>
      <trkpt lat="31.78584020" lon="35.05329600">
        <ele>416.00000</ele>
        <time>2010-01-01T03:19:51Z</time>
      </trkpt>
      <trkpt lat="31.78535230" lon="35.05413830">
        <ele>433.00000</ele>
        <time>2010-01-01T03:20:25Z</time>
      </trkpt>
      <trkpt lat="31.78519720" lon="35.05469080">
        <ele>434.00000</ele>
        <time>2010-01-01T03:20:45Z</time>
      </trkpt>
      <trkpt lat="31.78505590" lon="35.05539890">
        <ele>431.00000</ele>
        <time>2010-01-01T03:21:10Z</time>
      </trkpt>
      <trkpt lat="31.78509230" lon="35.05580660">
        <ele>431.00000</ele>
        <time>2010-01-01T03:21:24Z</time>
      </trkpt>
      <trkpt lat="31.78516530" lon="35.05637520">
        <ele>430.00000</ele>
        <time>2010-01-01T03:21:43Z</time>
      </trkpt>
      <trkpt lat="31.78571250" lon="35.05687950">
        <ele>429.00000</ele>
        <time>2010-01-01T03:22:11Z</time>
      </trkpt>
      <trkpt lat="31.78591310" lon="35.05709400">
        <ele>431.00000</ele>
        <time>2010-01-01T03:22:22Z</time>
      </trkpt>
      <trkpt lat="31.78600430" lon="35.05756610">
        <ele>432.00000</ele>
        <time>2010-01-01T03:22:39Z</time>
      </trkpt>
      <trkpt lat="31.78598610" lon="35.05825280">
        <ele>437.00000</ele>
        <time>2010-01-01T03:23:02Z</time>
      </trkpt>
      <trkpt lat="31.78587660" lon="35.05917540">
        <ele>437.00000</ele>
        <time>2010-01-01T03:23:34Z</time>
      </trkpt>
      <trkpt lat="31.78614570" lon="35.05981380">
        <ele>440.00000</ele>
        <time>2010-01-01T03:23:58Z</time>
      </trkpt>
      <trkpt lat="31.78649680" lon="35.06039850">
        <ele>443.00000</ele>
        <time>2010-01-01T03:24:22Z</time>
      </trkpt>
      <trkpt lat="31.78678410" lon="35.06106370">
        <ele>443.00000</ele>
        <time>2010-01-01T03:24:48Z</time>
      </trkpt>
      <trkpt lat="31.78702570" lon="35.06172890">
        <ele>447.00000</ele>
        <time>2010-01-01T03:25:12Z</time>
      </trkpt>
      <trkpt lat="31.78718530" lon="35.06239410">
        <ele>446.00000</ele>
        <time>2010-01-01T03:25:36Z</time>
      </trkpt>
      <trkpt lat="31.78727200" lon="35.06304320">
        <ele>441.00000</ele>
        <time>2010-01-01T03:25:58Z</time>
      </trkpt>
      <trkpt lat="31.78734950" lon="35.06332210">
        <ele>438.00000</ele>
        <time>2010-01-01T03:26:08Z</time>
      </trkpt>
      <trkpt lat="31.78716710" lon="35.06367620">
        <ele>442.00000</ele>
        <time>2010-01-01T03:26:22Z</time>
      </trkpt>
      <trkpt lat="31.78678860" lon="35.06385860">
        <ele>445.00000</ele>
        <time>2010-01-01T03:26:39Z</time>
      </trkpt>
      <trkpt lat="31.78620950" lon="35.06412140">
        <ele>451.00000</ele>
        <time>2010-01-01T03:27:03Z</time>
      </trkpt>
      <trkpt lat="31.78572620" lon="35.06435210">
        <ele>457.00000</ele>
        <time>2010-01-01T03:27:24Z</time>
      </trkpt>
      <trkpt lat="31.78527470" lon="35.06488320">
        <ele>451.00000</ele>
        <time>2010-01-01T03:27:50Z</time>
      </trkpt>
      <trkpt lat="31.78496010" lon="35.06510850">
        <ele>450.00000</ele>
        <time>2010-01-01T03:28:05Z</time>
      </trkpt>
      <trkpt lat="31.78469110" lon="35.06539820">
        <ele>457.00000</ele>
        <time>2010-01-01T03:28:19Z</time>
      </trkpt>
      <trkpt lat="31.78450870" lon="35.06579510">
        <ele>456.00000</ele>
        <time>2010-01-01T03:28:35Z</time>
      </trkpt>
      <trkpt lat="31.78434450" lon="35.06629400">
        <ele>456.00000</ele>
        <time>2010-01-01T03:28:53Z</time>
      </trkpt>
      <trkpt lat="31.78434450" lon="35.06670170">
        <ele>454.00000</ele>
        <time>2010-01-01T03:29:07Z</time>
      </trkpt>
      <trkpt lat="31.78457250" lon="35.06707190">
        <ele>457.00000</ele>
        <time>2010-01-01T03:29:22Z</time>
      </trkpt>
      <trkpt lat="31.78500110" lon="35.06724350">
        <ele>451.00000</ele>
        <time>2010-01-01T03:29:40Z</time>
      </trkpt>
      <trkpt lat="31.78535680" lon="35.06725430">
        <ele>451.00000</ele>
        <time>2010-01-01T03:29:55Z</time>
      </trkpt>
      <trkpt lat="31.78585840" lon="35.06713620">
        <ele>453.00000</ele>
        <time>2010-01-01T03:30:15Z</time>
      </trkpt>
      <trkpt lat="31.78604540" lon="35.06720600">
        <ele>456.00000</ele>
        <time>2010-01-01T03:30:23Z</time>
      </trkpt>
      <trkpt lat="31.78616850" lon="35.06765120">
        <ele>456.00000</ele>
        <time>2010-01-01T03:30:39Z</time>
      </trkpt>
      <trkpt lat="31.78602260" lon="35.06826280">
        <ele>459.00000</ele>
        <time>2010-01-01T03:31:00Z</time>
      </trkpt>
      <trkpt lat="31.78579460" lon="35.06878850">
        <ele>458.00000</ele>
        <time>2010-01-01T03:31:20Z</time>
      </trkpt>
      <trkpt lat="31.78566230" lon="35.06922840">
        <ele>462.00000</ele>
        <time>2010-01-01T03:31:36Z</time>
      </trkpt>
      <trkpt lat="31.78560310" lon="35.06997940">
        <ele>460.00000</ele>
        <time>2010-01-01T03:32:02Z</time>
      </trkpt>
      <trkpt lat="31.78570340" lon="35.06997940">
        <ele>458.00000</ele>
        <time>2010-01-01T03:32:06Z</time>
      </trkpt>
      <trkpt lat="31.78621860" lon="35.07032810">
        <ele>467.00000</ele>
        <time>2010-01-01T03:32:30Z</time>
      </trkpt>
      <trkpt lat="31.78631900" lon="35.07008670">
        <ele>463.00000</ele>
        <time>2010-01-01T03:32:39Z</time>
      </trkpt>
      <trkpt lat="31.78636910" lon="35.06943220">
        <ele>464.00000</ele>
        <time>2010-01-01T03:33:01Z</time>
      </trkpt>
      <trkpt lat="31.78641930" lon="35.06913180">
        <ele>466.00000</ele>
        <time>2010-01-01T03:33:12Z</time>
      </trkpt>
      <trkpt lat="31.78667010" lon="35.06892800">
        <ele>469.00000</ele>
        <time>2010-01-01T03:33:24Z</time>
      </trkpt>
      <trkpt lat="31.78677040" lon="35.06878310">
        <ele>472.00000</ele>
        <time>2010-01-01T03:33:30Z</time>
      </trkpt>
      <trkpt lat="31.78684330" lon="35.06845050">
        <ele>474.00000</ele>
        <time>2010-01-01T03:33:42Z</time>
      </trkpt>
      <trkpt lat="31.78693450" lon="35.06857930">
        <ele>478.00000</ele>
        <time>2010-01-01T03:33:48Z</time>
      </trkpt>
      <trkpt lat="31.78690720" lon="35.06890650">
        <ele>478.00000</ele>
        <time>2010-01-01T03:33:59Z</time>
      </trkpt>
      <trkpt lat="31.78698920" lon="35.06897620">
        <ele>481.00000</ele>
        <time>2010-01-01T03:34:03Z</time>
      </trkpt>
      <trkpt lat="31.78726740" lon="35.06855780">
        <ele>491.00000</ele>
        <time>2010-01-01T03:34:21Z</time>
      </trkpt>
      <trkpt lat="31.78746350" lon="35.06814470">
        <ele>500.00000</ele>
        <time>2010-01-01T03:34:37Z</time>
      </trkpt>
      <trkpt lat="31.78760480" lon="35.06767270">
        <ele>507.00000</ele>
        <time>2010-01-01T03:34:54Z</time>
      </trkpt>
      <trkpt lat="31.78760030" lon="35.06738300">
        <ele>508.00000</ele>
        <time>2010-01-01T03:35:04Z</time>
      </trkpt>
      <trkpt lat="31.78779180" lon="35.06712010">
        <ele>516.00000</ele>
        <time>2010-01-01T03:35:16Z</time>
      </trkpt>
      <trkpt lat="31.78790580" lon="35.06735620">
        <ele>520.00000</ele>
        <time>2010-01-01T03:35:25Z</time>
      </trkpt>
      <trkpt lat="31.78801060" lon="35.06741520">
        <ele>524.00000</ele>
        <time>2010-01-01T03:35:30Z</time>
      </trkpt>
      <trkpt lat="31.78811550" lon="35.06661590">
        <ele>526.00000</ele>
        <time>2010-01-01T03:35:57Z</time>
      </trkpt>
      <trkpt lat="31.78835720" lon="35.06644960">
        <ele>530.00000</ele>
        <time>2010-01-01T03:36:08Z</time>
      </trkpt>
      <trkpt lat="31.78845750" lon="35.06654620">
        <ele>535.00000</ele>
        <time>2010-01-01T03:36:14Z</time>
      </trkpt>
      <trkpt lat="31.78830250" lon="35.06688410">
        <ele>535.00000</ele>
        <time>2010-01-01T03:36:27Z</time>
      </trkpt>
      <trkpt lat="31.78861250" lon="35.06767270">
        <ele>544.00000</ele>
        <time>2010-01-01T03:36:56Z</time>
      </trkpt>
      <trkpt lat="31.78863530" lon="35.06812330">
        <ele>543.00000</ele>
        <time>2010-01-01T03:37:12Z</time>
      </trkpt>
      <trkpt lat="31.78879040" lon="35.06831640">
        <ele>546.00000</ele>
        <time>2010-01-01T03:37:21Z</time>
      </trkpt>
      <trkpt lat="31.78896360" lon="35.06830030">
        <ele>551.00000</ele>
        <time>2010-01-01T03:37:28Z</time>
      </trkpt>
      <trkpt lat="31.78906850" lon="35.06792480">
        <ele>555.00000</ele>
        <time>2010-01-01T03:37:41Z</time>
      </trkpt>
      <trkpt lat="31.78912320" lon="35.06797310">
        <ele>557.00000</ele>
        <time>2010-01-01T03:37:44Z</time>
      </trkpt>
      <trkpt lat="31.78921440" lon="35.06829500">
        <ele>558.00000</ele>
        <time>2010-01-01T03:37:55Z</time>
      </trkpt>
      <trkpt lat="31.78948800" lon="35.06863830">
        <ele>555.00000</ele>
        <time>2010-01-01T03:38:11Z</time>
      </trkpt>
      <trkpt lat="31.78996220" lon="35.06908350">
        <ele>556.00000</ele>
        <time>2010-01-01T03:38:36Z</time>
      </trkpt>
      <trkpt lat="31.79043640" lon="35.06973260">
        <ele>558.00000</ele>
        <time>2010-01-01T03:39:05Z</time>
      </trkpt>
      <trkpt lat="31.79053670" lon="35.07034950">
        <ele>552.00000</ele>
        <time>2010-01-01T03:39:26Z</time>
      </trkpt>
      <trkpt lat="31.79050940" lon="35.07089130">
        <ele>545.00000</ele>
        <time>2010-01-01T03:39:45Z</time>
      </trkpt>
      <trkpt lat="31.79054580" lon="35.07142780">
        <ele>541.00000</ele>
        <time>2010-01-01T03:40:03Z</time>
      </trkpt>
      <trkpt lat="31.79149420" lon="35.07301560">
        <ele>535.00000</ele>
        <time>2010-01-01T03:41:09Z</time>
      </trkpt>
      <trkpt lat="31.79262960" lon="35.07426020">
        <ele>546.00000</ele>
        <time>2010-01-01T03:42:11Z</time>
      </trkpt>
      <trkpt lat="31.79316300" lon="35.07503270">
        <ele>559.00000</ele>
        <time>2010-01-01T03:42:45Z</time>
      </trkpt>
      <trkpt lat="31.79267970" lon="35.07664200">
        <ele>553.00000</ele>
        <time>2010-01-01T03:43:43Z</time>
      </trkpt>
      <trkpt lat="31.79280740" lon="35.07724280">
        <ele>558.00000</ele>
        <time>2010-01-01T03:44:04Z</time>
      </trkpt>
      <trkpt lat="31.79334090" lon="35.07765590">
        <ele>563.00000</ele>
        <time>2010-01-01T03:44:30Z</time>
      </trkpt>
      <trkpt lat="31.79406580" lon="35.07767200">
        <ele>564.00000</ele>
        <time>2010-01-01T03:44:59Z</time>
      </trkpt>
      <trkpt lat="31.79567070" lon="35.07812260">
        <ele>563.00000</ele>
        <time>2010-01-01T03:46:05Z</time>
      </trkpt>
      <trkpt lat="31.79592150" lon="35.07807430">
        <ele>567.00000</ele>
        <time>2010-01-01T03:46:15Z</time>
      </trkpt>
      <trkpt lat="31.79686990" lon="35.07829420">
        <ele>575.00000</ele>
        <time>2010-01-01T03:46:54Z</time>
      </trkpt>
      <trkpt lat="31.79692000" lon="35.07871270">
        <ele>571.00000</ele>
        <time>2010-01-01T03:47:08Z</time>
      </trkpt>
      <trkpt lat="31.79714800" lon="35.07938860">
        <ele>570.00000</ele>
        <time>2010-01-01T03:47:33Z</time>
      </trkpt>
      <trkpt lat="31.79758570" lon="35.08026300">
        <ele>577.00000</ele>
        <time>2010-01-01T03:48:07Z</time>
      </trkpt>
      <trkpt lat="31.79771790" lon="35.08019860">
        <ele>581.00000</ele>
        <time>2010-01-01T03:48:13Z</time>
      </trkpt>
      <trkpt lat="31.79758570" lon="35.07993040">
        <ele>578.00000</ele>
        <time>2010-01-01T03:48:23Z</time>
      </trkpt>
      <trkpt lat="31.79749900" lon="35.07928130">
        <ele>580.00000</ele>
        <time>2010-01-01T03:48:46Z</time>
      </trkpt>
      <trkpt lat="31.79752180" lon="35.07907210">
        <ele>582.00000</ele>
        <time>2010-01-01T03:48:53Z</time>
      </trkpt>
      <trkpt lat="31.79728480" lon="35.07781680">
        <ele>589.00000</ele>
        <time>2010-01-01T03:49:37Z</time>
      </trkpt>
      <trkpt lat="31.79711610" lon="35.07732860">
        <ele>594.00000</ele>
        <time>2010-01-01T03:49:55Z</time>
      </trkpt>
      <trkpt lat="31.79626800" lon="35.07682970">
        <ele>595.00000</ele>
        <time>2010-01-01T03:50:33Z</time>
      </trkpt>
      <trkpt lat="31.79625430" lon="35.07660440">
        <ele>599.00000</ele>
        <time>2010-01-01T03:50:40Z</time>
      </trkpt>
      <trkpt lat="31.79762210" lon="35.07649180">
        <ele>610.00000</ele>
        <time>2010-01-01T03:51:35Z</time>
      </trkpt>
      <trkpt lat="31.79780000" lon="35.07634160">
        <ele>613.00000</ele>
        <time>2010-01-01T03:51:44Z</time>
      </trkpt>
      <trkpt lat="31.79769960" lon="35.07589630">
        <ele>618.00000</ele>
        <time>2010-01-01T03:52:00Z</time>
      </trkpt>
      <trkpt lat="31.79589870" lon="35.07493610">
        <ele>630.00000</ele>
        <time>2010-01-01T03:53:19Z</time>
      </trkpt>
      <trkpt lat="31.79538350" lon="35.07407780">
        <ele>640.00000</ele>
        <time>2010-01-01T03:53:55Z</time>
      </trkpt>
      <trkpt lat="31.79508710" lon="35.07316580">
        <ele>653.00000</ele>
        <time>2010-01-01T03:54:28Z</time>
      </trkpt>
      <trkpt lat="31.79413420" lon="35.07243630">
        <ele>660.00000</ele>
        <time>2010-01-01T03:55:13Z</time>
      </trkpt>
      <trkpt lat="31.79397010" lon="35.07211440">
        <ele>661.00000</ele>
        <time>2010-01-01T03:55:26Z</time>
      </trkpt>
      <trkpt lat="31.79381500" lon="35.07149750">
        <ele>668.00000</ele>
        <time>2010-01-01T03:55:48Z</time>
      </trkpt>
      <trkpt lat="31.79346400" lon="35.07063380">
        <ele>674.00000</ele>
        <time>2010-01-01T03:56:20Z</time>
      </trkpt>
      <trkpt lat="31.79226030" lon="35.06876700">
        <ele>668.00000</ele>
        <time>2010-01-01T03:57:40Z</time>
      </trkpt>
      <trkpt lat="31.79198670" lon="35.06782290">
        <ele>669.00000</ele>
        <time>2010-01-01T03:58:14Z</time>
      </trkpt>
      <trkpt lat="31.79226030" lon="35.06659980">
        <ele>670.00000</ele>
        <time>2010-01-01T03:58:57Z</time>
      </trkpt>
      <trkpt lat="31.79253380" lon="35.06637450">
        <ele>672.00000</ele>
        <time>2010-01-01T03:59:11Z</time>
      </trkpt>
      <trkpt lat="31.79275270" lon="35.06559130">
        <ele>668.00000</ele>
        <time>2010-01-01T03:59:39Z</time>
      </trkpt>
      <trkpt lat="31.79324510" lon="35.06520500">
        <ele>658.00000</ele>
        <time>2010-01-01T04:00:02Z</time>
      </trkpt>
      <trkpt lat="31.79351870" lon="35.06458280">
        <ele>650.00000</ele>
        <time>2010-01-01T04:00:26Z</time>
      </trkpt>
      <trkpt lat="31.79402930" lon="35.06417510">
        <ele>643.00000</ele>
        <time>2010-01-01T04:00:51Z</time>
      </trkpt>
      <trkpt lat="31.79486830" lon="35.06400340">
        <ele>650.00000</ele>
        <time>2010-01-01T04:01:25Z</time>
      </trkpt>
      <trkpt lat="31.79433940" lon="35.06273740">
        <ele>630.00000</ele>
        <time>2010-01-01T04:02:13Z</time>
      </trkpt>
      <trkpt lat="31.79433940" lon="35.06183620">
        <ele>621.00000</ele>
        <time>2010-01-01T04:02:44Z</time>
      </trkpt>
      <trkpt lat="31.79441230" lon="35.06119250">
        <ele>612.00000</ele>
        <time>2010-01-01T04:03:06Z</time>
      </trkpt>
      <trkpt lat="31.79486830" lon="35.06007670">
        <ele>596.00000</ele>
        <time>2010-01-01T04:03:48Z</time>
      </trkpt>
      <trkpt lat="31.79536070" lon="35.05973330">
        <ele>596.00000</ele>
        <time>2010-01-01T04:04:11Z</time>
      </trkpt>
      <trkpt lat="31.79559780" lon="35.05844590">
        <ele>585.00000</ele>
        <time>2010-01-01T04:04:56Z</time>
      </trkpt>
      <trkpt lat="31.79643670" lon="35.05745880">
        <ele>574.00000</ele>
        <time>2010-01-01T04:05:43Z</time>
      </trkpt>
      <trkpt lat="31.79660090" lon="35.05711550">
        <ele>572.00000</ele>
        <time>2010-01-01T04:05:56Z</time>
      </trkpt>
      <trkpt lat="31.79736680" lon="35.05670780">
        <ele>556.00000</ele>
        <time>2010-01-01T04:06:30Z</time>
      </trkpt>
      <trkpt lat="31.79904460" lon="35.05479810">
        <ele>530.00000</ele>
        <time>2010-01-01T04:08:04Z</time>
      </trkpt>
      <trkpt lat="31.80063120" lon="35.05385390">
        <ele>498.00000</ele>
        <time>2010-01-01T04:09:15Z</time>
      </trkpt>
      <trkpt lat="31.80165250" lon="35.05342480">
        <ele>475.00000</ele>
        <time>2010-01-01T04:09:58Z</time>
      </trkpt>
      <trkpt lat="31.80234550" lon="35.05192270">
        <ele>455.00000</ele>
        <time>2010-01-01T04:10:56Z</time>
      </trkpt>
      <trkpt lat="31.80278310" lon="35.05187980">
        <ele>455.00000</ele>
        <time>2010-01-01T04:11:14Z</time>
      </trkpt>
      <trkpt lat="31.80281960" lon="35.05138630">
        <ele>450.00000</ele>
        <time>2010-01-01T04:11:31Z</time>
      </trkpt>
      <trkpt lat="31.80329370" lon="35.05093570">
        <ele>443.00000</ele>
        <time>2010-01-01T04:11:55Z</time>
      </trkpt>
      <trkpt lat="31.80356730" lon="35.05097860">
        <ele>445.00000</ele>
        <time>2010-01-01T04:12:06Z</time>
      </trkpt>
      <trkpt lat="31.80331200" lon="35.05172960">
        <ele>458.00000</ele>
        <time>2010-01-01T04:12:34Z</time>
      </trkpt>
      <trkpt lat="31.80371320" lon="35.05181550">
        <ele>459.00000</ele>
        <time>2010-01-01T04:12:50Z</time>
      </trkpt>
      <trkpt lat="31.80396850" lon="35.05213730">
        <ele>465.00000</ele>
        <time>2010-01-01T04:13:05Z</time>
      </trkpt>
      <trkpt lat="31.80418730" lon="35.05346770">
        <ele>485.00000</ele>
        <time>2010-01-01T04:13:51Z</time>
      </trkpt>
      <trkpt lat="31.80460670" lon="35.05351060">
        <ele>484.00000</ele>
        <time>2010-01-01T04:14:08Z</time>
      </trkpt>
      <trkpt lat="31.80478910" lon="35.05378960">
        <ele>489.00000</ele>
        <time>2010-01-01T04:14:20Z</time>
      </trkpt>
      <trkpt lat="31.80466140" lon="35.05430450">
        <ele>496.00000</ele>
        <time>2010-01-01T04:14:38Z</time>
      </trkpt>
      <trkpt lat="31.80493500" lon="35.05466930">
        <ele>503.00000</ele>
        <time>2010-01-01T04:14:55Z</time>
      </trkpt>
      <trkpt lat="31.80519030" lon="35.05533450">
        <ele>508.00000</ele>
        <time>2010-01-01T04:15:20Z</time>
      </trkpt>
      <trkpt lat="31.80500790" lon="35.05554910">
        <ele>514.00000</ele>
        <time>2010-01-01T04:15:30Z</time>
      </trkpt>
      <trkpt lat="31.80506260" lon="35.05608550">
        <ele>521.00000</ele>
        <time>2010-01-01T04:15:48Z</time>
      </trkpt>
      <trkpt lat="31.80467970" lon="35.05621430">
        <ele>520.00000</ele>
        <time>2010-01-01T04:16:04Z</time>
      </trkpt>
      <trkpt lat="31.80436970" lon="35.05690090">
        <ele>529.00000</ele>
        <time>2010-01-01T04:16:31Z</time>
      </trkpt>
      <trkpt lat="31.80404140" lon="35.05782360">
        <ele>543.00000</ele>
        <time>2010-01-01T04:17:05Z</time>
      </trkpt>
      <trkpt lat="31.80356730" lon="35.05954020">
        <ele>559.00000</ele>
        <time>2010-01-01T04:18:06Z</time>
      </trkpt>
      <trkpt lat="31.80374960" lon="35.05996940">
        <ele>564.00000</ele>
        <time>2010-01-01T04:18:22Z</time>
      </trkpt>
      <trkpt lat="31.80416910" lon="35.06014100">
        <ele>565.00000</ele>
        <time>2010-01-01T04:18:40Z</time>
      </trkpt>
      <trkpt lat="31.80364020" lon="35.06026980">
        <ele>568.00000</ele>
        <time>2010-01-01T04:19:02Z</time>
      </trkpt>
      <trkpt lat="31.80353080" lon="35.05999080">
        <ele>565.00000</ele>
        <time>2010-01-01T04:19:12Z</time>
      </trkpt>
      <trkpt lat="31.80325730" lon="35.05977630">
        <ele>560.00000</ele>
        <time>2010-01-01T04:19:25Z</time>
      </trkpt>
      <trkpt lat="31.80292900" lon="35.06014100">
        <ele>564.00000</ele>
        <time>2010-01-01T04:19:43Z</time>
      </trkpt>
      <trkpt lat="31.80249130" lon="35.06087060">
        <ele>578.00000</ele>
        <time>2010-01-01T04:20:14Z</time>
      </trkpt>
      <trkpt lat="31.80225430" lon="35.06119250">
        <ele>583.00000</ele>
        <time>2010-01-01T04:20:28Z</time>
      </trkpt>
      <trkpt lat="31.80185310" lon="35.06138560">
        <ele>584.00000</ele>
        <time>2010-01-01T04:20:46Z</time>
      </trkpt>
      <trkpt lat="31.80156130" lon="35.06194350">
        <ele>596.00000</ele>
        <time>2010-01-01T04:21:08Z</time>
      </trkpt>
      <trkpt lat="31.80114180" lon="35.06209370">
        <ele>601.00000</ele>
        <time>2010-01-01T04:21:26Z</time>
      </trkpt>
      <trkpt lat="31.80070420" lon="35.06187910">
        <ele>602.00000</ele>
        <time>2010-01-01T04:21:44Z</time>
      </trkpt>
      <trkpt lat="31.80079540" lon="35.06018400">
        <ele>593.00000</ele>
        <time>2010-01-01T04:22:42Z</time>
      </trkpt>
      <trkpt lat="31.80092300" lon="35.05932560">
        <ele>587.00000</ele>
        <time>2010-01-01T04:23:12Z</time>
      </trkpt>
      <trkpt lat="31.80037590" lon="35.05846730">
        <ele>586.00000</ele>
        <time>2010-01-01T04:23:48Z</time>
      </trkpt>
      <trkpt lat="31.79931820" lon="35.05883210">
        <ele>603.00000</ele>
        <time>2010-01-01T04:24:33Z</time>
      </trkpt>
      <trkpt lat="31.79811450" lon="35.05951880">
        <ele>618.00000</ele>
        <time>2010-01-01T04:25:26Z</time>
      </trkpt>
      <trkpt lat="31.79669200" lon="35.06151430">
        <ele>643.00000</ele>
        <time>2010-01-01T04:26:55Z</time>
      </trkpt>
      <trkpt lat="31.79658260" lon="35.06232970">
        <ele>654.00000</ele>
        <time>2010-01-01T04:27:23Z</time>
      </trkpt>
      <trkpt lat="31.79636380" lon="35.06232970">
        <ele>650.00000</ele>
        <time>2010-01-01T04:27:32Z</time>
      </trkpt>
      <trkpt lat="31.79619960" lon="35.06273740">
        <ele>656.00000</ele>
        <time>2010-01-01T04:27:47Z</time>
      </trkpt>
      <trkpt lat="31.79572550" lon="35.06256580">
        <ele>646.00000</ele>
        <time>2010-01-01T04:28:07Z</time>
      </trkpt>
      <trkpt lat="31.79528780" lon="35.06224390">
        <ele>639.00000</ele>
        <time>2010-01-01T04:28:27Z</time>
      </trkpt>
      <trkpt lat="31.79499590" lon="35.06250140">
        <ele>642.00000</ele>
        <time>2010-01-01T04:28:42Z</time>
      </trkpt>
      <trkpt lat="31.79477710" lon="35.06293050">
        <ele>640.00000</ele>
        <time>2010-01-01T04:28:59Z</time>
      </trkpt>
      <trkpt lat="31.79481360" lon="35.06348840">
        <ele>645.00000</ele>
        <time>2010-01-01T04:29:18Z</time>
      </trkpt>
      <trkpt lat="31.79483180" lon="35.06411070">
        <ele>650.00000</ele>
        <time>2010-01-01T04:29:39Z</time>
      </trkpt>
      <trkpt lat="31.79393820" lon="35.06415360">
        <ele>643.00000</ele>
        <time>2010-01-01T04:30:15Z</time>
      </trkpt>
      <trkpt lat="31.79371930" lon="35.06458280">
        <ele>651.00000</ele>
        <time>2010-01-01T04:30:32Z</time>
      </trkpt>
      <trkpt lat="31.79344570" lon="35.06426090">
        <ele>647.00000</ele>
        <time>2010-01-01T04:30:48Z</time>
      </trkpt>
      <trkpt lat="31.79348220" lon="35.06386390">
        <ele>644.00000</ele>
        <time>2010-01-01T04:31:01Z</time>
      </trkpt>
      <trkpt lat="31.79345480" lon="35.06346700">
        <ele>642.00000</ele>
        <time>2010-01-01T04:31:15Z</time>
      </trkpt>
      <trkpt lat="31.79336370" lon="35.06308610">
        <ele>640.00000</ele>
        <time>2010-01-01T04:31:28Z</time>
      </trkpt>
      <trkpt lat="31.79334540" lon="35.06268380">
        <ele>637.00000</ele>
        <time>2010-01-01T04:31:42Z</time>
      </trkpt>
      <trkpt lat="31.79324970" lon="35.06224390">
        <ele>637.00000</ele>
        <time>2010-01-01T04:31:57Z</time>
      </trkpt>
      <trkpt lat="31.79327250" lon="35.06180400">
        <ele>635.00000</ele>
        <time>2010-01-01T04:32:12Z</time>
      </trkpt>
      <trkpt lat="31.79312200" lon="35.06137490">
        <ele>636.00000</ele>
        <time>2010-01-01T04:32:28Z</time>
      </trkpt>
      <trkpt lat="31.79297150" lon="35.06121390">
        <ele>638.00000</ele>
        <time>2010-01-01T04:32:36Z</time>
      </trkpt>
      <trkpt lat="31.79333170" lon="35.05957780">
        <ele>634.00000</ele>
        <time>2010-01-01T04:33:34Z</time>
      </trkpt>
      <trkpt lat="31.79328610" lon="35.05886430">
        <ele>637.00000</ele>
        <time>2010-01-01T04:33:58Z</time>
      </trkpt>
      <trkpt lat="31.79357340" lon="35.05790940">
        <ele>632.00000</ele>
        <time>2010-01-01T04:34:33Z</time>
      </trkpt>
      <trkpt lat="31.79350040" lon="35.05752320">
        <ele>634.00000</ele>
        <time>2010-01-01T04:34:46Z</time>
      </trkpt>
      <trkpt lat="31.79282560" lon="35.05623570">
        <ele>625.00000</ele>
        <time>2010-01-01T04:35:38Z</time>
      </trkpt>
      <trkpt lat="31.79267060" lon="35.05596220">
        <ele>624.00000</ele>
        <time>2010-01-01T04:35:49Z</time>
      </trkpt>
      <trkpt lat="31.79239250" lon="35.05574760">
        <ele>622.00000</ele>
        <time>2010-01-01T04:36:02Z</time>
      </trkpt>
      <trkpt lat="31.79211890" lon="35.05502870">
        <ele>624.00000</ele>
        <time>2010-01-01T04:36:29Z</time>
      </trkpt>
      <trkpt lat="31.79205510" lon="35.05460500">
        <ele>623.00000</ele>
        <time>2010-01-01T04:36:43Z</time>
      </trkpt>
      <trkpt lat="31.79191830" lon="35.05427770">
        <ele>622.00000</ele>
        <time>2010-01-01T04:36:56Z</time>
      </trkpt>
      <trkpt lat="31.79176780" lon="35.05340330">
        <ele>613.00000</ele>
        <time>2010-01-01T04:37:26Z</time>
      </trkpt>
      <trkpt lat="31.79197760" lon="35.05300100">
        <ele>607.00000</ele>
        <time>2010-01-01T04:37:42Z</time>
      </trkpt>
      <trkpt lat="31.79187720" lon="35.05271130">
        <ele>603.00000</ele>
        <time>2010-01-01T04:37:53Z</time>
      </trkpt>
      <trkpt lat="31.79198210" lon="35.05241630">
        <ele>600.00000</ele>
        <time>2010-01-01T04:38:04Z</time>
      </trkpt>
      <trkpt lat="31.79195930" lon="35.05205150">
        <ele>599.00000</ele>
        <time>2010-01-01T04:38:16Z</time>
      </trkpt>
      <trkpt lat="31.79086050" lon="35.05051190">
        <ele>585.00000</ele>
        <time>2010-01-01T04:39:25Z</time>
      </trkpt>
      <trkpt lat="31.79012640" lon="35.04997010">
        <ele>582.00000</ele>
        <time>2010-01-01T04:39:59Z</time>
      </trkpt>
      <trkpt lat="31.78996220" lon="35.04959460">
        <ele>580.00000</ele>
        <time>2010-01-01T04:40:14Z</time>
      </trkpt>
      <trkpt lat="31.78997130" lon="35.04883280">
        <ele>576.00000</ele>
        <time>2010-01-01T04:40:40Z</time>
      </trkpt>
      <trkpt lat="31.79007620" lon="35.04796380">
        <ele>573.00000</ele>
        <time>2010-01-01T04:41:09Z</time>
      </trkpt>
      <trkpt lat="31.79006710" lon="35.04734690">
        <ele>573.00000</ele>
        <time>2010-01-01T04:41:30Z</time>
      </trkpt>
      <trkpt lat="31.78977980" lon="35.04647250">
        <ele>572.00000</ele>
        <time>2010-01-01T04:42:02Z</time>
      </trkpt>
      <trkpt lat="31.78953360" lon="35.04607020">
        <ele>568.00000</ele>
        <time>2010-01-01T04:42:19Z</time>
      </trkpt>
      <trkpt lat="31.78942420" lon="35.04560350">
        <ele>564.00000</ele>
        <time>2010-01-01T04:42:36Z</time>
      </trkpt>
      <trkpt lat="31.78967040" lon="35.04467010">
        <ele>559.00000</ele>
        <time>2010-01-01T04:43:09Z</time>
      </trkpt>
      <trkpt lat="31.78972510" lon="35.04400490">
        <ele>554.00000</ele>
        <time>2010-01-01T04:43:32Z</time>
      </trkpt>
      <trkpt lat="31.78957010" lon="35.04322170">
        <ele>553.00000</ele>
        <time>2010-01-01T04:43:59Z</time>
      </trkpt>
      <trkpt lat="31.78936030" lon="35.04285690">
        <ele>555.00000</ele>
        <time>2010-01-01T04:44:14Z</time>
      </trkpt>
      <trkpt lat="31.78938770" lon="35.04255650">
        <ele>558.00000</ele>
        <time>2010-01-01T04:44:24Z</time>
      </trkpt>
      <trkpt lat="31.78876760" lon="35.04243850">
        <ele>555.00000</ele>
        <time>2010-01-01T04:44:49Z</time>
      </trkpt>
      <trkpt lat="31.78870370" lon="35.04223460">
        <ele>555.00000</ele>
        <time>2010-01-01T04:44:57Z</time>
      </trkpt>
      <trkpt lat="31.78856690" lon="35.04202000">
        <ele>555.00000</ele>
        <time>2010-01-01T04:45:06Z</time>
      </trkpt>
      <trkpt lat="31.78884050" lon="35.04135480">
        <ele>561.00000</ele>
        <time>2010-01-01T04:45:31Z</time>
      </trkpt>
      <trkpt lat="31.78885880" lon="35.04068970">
        <ele>559.00000</ele>
        <time>2010-01-01T04:45:54Z</time>
      </trkpt>
      <trkpt lat="31.78874020" lon="35.04020690">
        <ele>554.00000</ele>
        <time>2010-01-01T04:46:11Z</time>
      </trkpt>
      <trkpt lat="31.78881320" lon="35.03985280">
        <ele>550.00000</ele>
        <time>2010-01-01T04:46:23Z</time>
      </trkpt>
      <trkpt lat="31.78821130" lon="35.03886580">
        <ele>539.00000</ele>
        <time>2010-01-01T04:47:05Z</time>
      </trkpt>
      <trkpt lat="31.78796500" lon="35.03869410">
        <ele>540.00000</ele>
        <time>2010-01-01T04:47:16Z</time>
      </trkpt>
      <trkpt lat="31.78777350" lon="35.03822200">
        <ele>540.00000</ele>
        <time>2010-01-01T04:47:34Z</time>
      </trkpt>
      <trkpt lat="31.78766410" lon="35.03720280">
        <ele>533.00000</ele>
        <time>2010-01-01T04:48:09Z</time>
      </trkpt>
      <trkpt lat="31.78730840" lon="35.03644100">
        <ele>534.00000</ele>
        <time>2010-01-01T04:48:38Z</time>
      </trkpt>
      <trkpt lat="31.78673390" lon="35.03516430">
        <ele>532.00000</ele>
        <time>2010-01-01T04:49:28Z</time>
      </trkpt>
      <trkpt lat="31.78667010" lon="35.03479950">
        <ele>532.00000</ele>
        <time>2010-01-01T04:49:40Z</time>
      </trkpt>
      <trkpt lat="31.78653330" lon="35.03456350">
        <ele>538.00000</ele>
        <time>2010-01-01T04:49:50Z</time>
      </trkpt>
      <trkpt lat="31.78636910" lon="35.03494970">
        <ele>544.00000</ele>
        <time>2010-01-01T04:50:05Z</time>
      </trkpt>
      <trkpt lat="31.78638730" lon="35.03564710">
        <ele>552.00000</ele>
        <time>2010-01-01T04:50:28Z</time>
      </trkpt>
      <trkpt lat="31.78605900" lon="35.03534670">
        <ele>560.00000</ele>
        <time>2010-01-01T04:50:45Z</time>
      </trkpt>
      <trkpt lat="31.78591310" lon="35.03482100">
        <ele>562.00000</ele>
        <time>2010-01-01T04:51:04Z</time>
      </trkpt>
      <trkpt lat="31.78599520" lon="35.03456350">
        <ele>559.00000</ele>
        <time>2010-01-01T04:51:13Z</time>
      </trkpt>
      <trkpt lat="31.78616850" lon="35.03429530">
        <ele>553.00000</ele>
        <time>2010-01-01T04:51:25Z</time>
      </trkpt>
      <trkpt lat="31.78619580" lon="35.03403780">
        <ele>553.00000</ele>
        <time>2010-01-01T04:51:34Z</time>
      </trkpt>
      <trkpt lat="31.78660620" lon="35.03351210">
        <ele>546.00000</ele>
        <time>2010-01-01T04:51:58Z</time>
      </trkpt>
      <trkpt lat="31.78689810" lon="35.03313660">
        <ele>541.00000</ele>
        <time>2010-01-01T04:52:15Z</time>
      </trkpt>
      <trkpt lat="31.78689810" lon="35.03241770">
        <ele>546.00000</ele>
        <time>2010-01-01T04:52:40Z</time>
      </trkpt>
      <trkpt lat="31.78646030" lon="35.03201000">
        <ele>551.00000</ele>
        <time>2010-01-01T04:53:02Z</time>
      </trkpt>
      <trkpt lat="31.78624140" lon="35.03218170">
        <ele>555.00000</ele>
        <time>2010-01-01T04:53:12Z</time>
      </trkpt>
      <trkpt lat="31.78602260" lon="35.03219240">
        <ele>558.00000</ele>
        <time>2010-01-01T04:53:21Z</time>
      </trkpt>
      <trkpt lat="31.78586750" lon="35.03242850">
        <ele>563.00000</ele>
        <time>2010-01-01T04:53:31Z</time>
      </trkpt>
      <trkpt lat="31.78555750" lon="35.03270740">
        <ele>566.00000</ele>
        <time>2010-01-01T04:53:47Z</time>
      </trkpt>
      <trkpt lat="31.78523830" lon="35.03269670">
        <ele>567.00000</ele>
        <time>2010-01-01T04:54:00Z</time>
      </trkpt>
      <trkpt lat="31.78511970" lon="35.03249280">
        <ele>566.00000</ele>
        <time>2010-01-01T04:54:08Z</time>
      </trkpt>
      <trkpt lat="31.78481870" lon="35.03237480">
        <ele>565.00000</ele>
        <time>2010-01-01T04:54:21Z</time>
      </trkpt>
      <trkpt lat="31.78473670" lon="35.03208510">
        <ele>561.00000</ele>
        <time>2010-01-01T04:54:31Z</time>
      </trkpt>
      <trkpt lat="31.78473210" lon="35.03175790">
        <ele>556.00000</ele>
        <time>2010-01-01T04:54:42Z</time>
      </trkpt>
      <trkpt lat="31.78464090" lon="35.03156480">
        <ele>552.00000</ele>
        <time>2010-01-01T04:54:50Z</time>
      </trkpt>
      <trkpt lat="31.78476400" lon="35.03140380">
        <ele>550.00000</ele>
        <time>2010-01-01T04:54:57Z</time>
      </trkpt>
      <trkpt lat="31.78473670" lon="35.03124830">
        <ele>547.00000</ele>
        <time>2010-01-01T04:55:03Z</time>
      </trkpt>
      <trkpt lat="31.78447220" lon="35.03103370">
        <ele>542.00000</ele>
        <time>2010-01-01T04:55:16Z</time>
      </trkpt>
      <trkpt lat="31.78436730" lon="35.03061530">
        <ele>534.00000</ele>
        <time>2010-01-01T04:55:30Z</time>
      </trkpt>
      <trkpt lat="31.78415300" lon="35.03063140">
        <ele>534.00000</ele>
        <time>2010-01-01T04:55:39Z</time>
      </trkpt>
      <trkpt lat="31.78386570" lon="35.03051340">
        <ele>528.00000</ele>
        <time>2010-01-01T04:55:51Z</time>
      </trkpt>
      <trkpt lat="31.78366960" lon="35.03054020">
        <ele>526.00000</ele>
        <time>2010-01-01T04:55:59Z</time>
      </trkpt>
      <trkpt lat="31.78358300" lon="35.03029340">
        <ele>521.00000</ele>
        <time>2010-01-01T04:56:08Z</time>
      </trkpt>
      <trkpt lat="31.78368790" lon="35.03018080">
        <ele>520.00000</ele>
        <time>2010-01-01T04:56:14Z</time>
      </trkpt>
      <trkpt lat="31.78394320" lon="35.03014320">
        <ele>522.00000</ele>
        <time>2010-01-01T04:56:24Z</time>
      </trkpt>
      <trkpt lat="31.78413480" lon="35.02995550">
        <ele>519.00000</ele>
        <time>2010-01-01T04:56:34Z</time>
      </trkpt>
      <trkpt lat="31.78408920" lon="35.02982130">
        <ele>515.00000</ele>
        <time>2010-01-01T04:56:39Z</time>
      </trkpt>
      <trkpt lat="31.78358760" lon="35.02977840">
        <ele>513.00000</ele>
        <time>2010-01-01T04:56:59Z</time>
      </trkpt>
      <trkpt lat="31.78332310" lon="35.02952090">
        <ele>509.00000</ele>
        <time>2010-01-01T04:57:13Z</time>
      </trkpt>
      <trkpt lat="31.78357840" lon="35.02925810">
        <ele>504.00000</ele>
        <time>2010-01-01T04:57:27Z</time>
      </trkpt>
      <trkpt lat="31.78387030" lon="35.02925810">
        <ele>502.00000</ele>
        <time>2010-01-01T04:57:38Z</time>
      </trkpt>
      <trkpt lat="31.78393410" lon="35.02922590">
        <ele>500.00000</ele>
        <time>2010-01-01T04:57:41Z</time>
      </trkpt>
      <trkpt lat="31.78395240" lon="35.02917230">
        <ele>499.00000</ele>
        <time>2010-01-01T04:57:43Z</time>
      </trkpt>
      <trkpt lat="31.78376540" lon="35.02894160">
        <ele>495.00000</ele>
        <time>2010-01-01T04:57:54Z</time>
      </trkpt>
      <trkpt lat="31.78368330" lon="35.02892550">
        <ele>496.00000</ele>
        <time>2010-01-01T04:57:57Z</time>
      </trkpt>
      <trkpt lat="31.78329570" lon="35.02859830">
        <ele>493.00000</ele>
        <time>2010-01-01T04:58:16Z</time>
      </trkpt>
      <trkpt lat="31.78296280" lon="35.02855000">
        <ele>489.00000</ele>
        <time>2010-01-01T04:58:30Z</time>
      </trkpt>
      <trkpt lat="31.78329120" lon="35.02819590">
        <ele>486.00000</ele>
        <time>2010-01-01T04:58:47Z</time>
      </trkpt>
      <trkpt lat="31.78345080" lon="35.02822810">
        <ele>484.00000</ele>
        <time>2010-01-01T04:58:54Z</time>
      </trkpt>
      <trkpt lat="31.78377910" lon="35.02848560">
        <ele>484.00000</ele>
        <time>2010-01-01T04:59:10Z</time>
      </trkpt>
      <trkpt lat="31.78416210" lon="35.02854460">
        <ele>479.00000</ele>
        <time>2010-01-01T04:59:25Z</time>
      </trkpt>
      <trkpt lat="31.78468190" lon="35.02904890">
        <ele>484.00000</ele>
        <time>2010-01-01T04:59:52Z</time>
      </trkpt>
      <trkpt lat="31.78496470" lon="35.02910250">
        <ele>481.00000</ele>
        <time>2010-01-01T05:00:04Z</time>
      </trkpt>
      <trkpt lat="31.78566230" lon="35.02878600">
        <ele>470.00000</ele>
        <time>2010-01-01T05:00:34Z</time>
      </trkpt>
      <trkpt lat="31.78651500" lon="35.02876990">
        <ele>463.00000</ele>
        <time>2010-01-01T05:01:08Z</time>
      </trkpt>
      <trkpt lat="31.78685250" lon="35.02894160">
        <ele>464.00000</ele>
        <time>2010-01-01T05:01:22Z</time>
      </trkpt>
      <trkpt lat="31.78737230" lon="35.02930640">
        <ele>463.00000</ele>
        <time>2010-01-01T05:01:47Z</time>
      </trkpt>
      <trkpt lat="31.78795590" lon="35.02961750">
        <ele>462.00000</ele>
        <time>2010-01-01T05:02:12Z</time>
      </trkpt>
      <trkpt lat="31.78843010" lon="35.03003590">
        <ele>460.00000</ele>
        <time>2010-01-01T05:02:36Z</time>
      </trkpt>
      <trkpt lat="31.78882230" lon="35.03047040">
        <ele>467.00000</ele>
        <time>2010-01-01T05:02:58Z</time>
      </trkpt>
      <trkpt lat="31.78896820" lon="35.03040070">
        <ele>465.00000</ele>
        <time>2010-01-01T05:03:04Z</time>
      </trkpt>
      <trkpt lat="31.78904110" lon="35.02993940">
        <ele>464.00000</ele>
        <time>2010-01-01T05:03:20Z</time>
      </trkpt>
      <trkpt lat="31.78902290" lon="35.02973550">
        <ele>465.00000</ele>
        <time>2010-01-01T05:03:27Z</time>
      </trkpt>
      <trkpt lat="31.78918710" lon="35.03005740">
        <ele>465.00000</ele>
        <time>2010-01-01T05:03:40Z</time>
      </trkpt>
      <trkpt lat="31.78913690" lon="35.03047040">
        <ele>465.00000</ele>
        <time>2010-01-01T05:03:54Z</time>
      </trkpt>
      <trkpt lat="31.78915970" lon="35.03101220">
        <ele>465.00000</ele>
        <time>2010-01-01T05:04:12Z</time>
      </trkpt>
      <trkpt lat="31.78926000" lon="35.03182760">
        <ele>473.00000</ele>
        <time>2010-01-01T05:04:40Z</time>
      </trkpt>
      <trkpt lat="31.78919620" lon="35.03255720">
        <ele>477.00000</ele>
        <time>2010-01-01T05:05:05Z</time>
      </trkpt>
      <trkpt lat="31.78889520" lon="35.03398410">
        <ele>487.00000</ele>
        <time>2010-01-01T05:05:55Z</time>
      </trkpt>
      <trkpt lat="31.78883140" lon="35.03450980">
        <ele>491.00000</ele>
        <time>2010-01-01T05:06:13Z</time>
      </trkpt>
      <trkpt lat="31.78878580" lon="35.03570070">
        <ele>504.00000</ele>
        <time>2010-01-01T05:06:54Z</time>
      </trkpt>
      <trkpt lat="31.78891350" lon="35.03734230">
        <ele>521.00000</ele>
        <time>2010-01-01T05:07:50Z</time>
      </trkpt>
      <trkpt lat="31.78905030" lon="35.03791090">
        <ele>526.00000</ele>
        <time>2010-01-01T05:08:10Z</time>
      </trkpt>
      <trkpt lat="31.78930560" lon="35.03829710">
        <ele>531.00000</ele>
        <time>2010-01-01T05:08:27Z</time>
      </trkpt>
      <trkpt lat="31.78958830" lon="35.03887650">
        <ele>538.00000</ele>
        <time>2010-01-01T05:08:49Z</time>
      </trkpt>
      <trkpt lat="31.79008530" lon="35.03963820">
        <ele>544.00000</ele>
        <time>2010-01-01T05:09:22Z</time>
      </trkpt>
      <trkpt lat="31.79036350" lon="35.04020690">
        <ele>550.00000</ele>
        <time>2010-01-01T05:09:44Z</time>
      </trkpt>
      <trkpt lat="31.79052760" lon="35.04075400">
        <ele>553.00000</ele>
        <time>2010-01-01T05:10:04Z</time>
      </trkpt>
      <trkpt lat="31.79071910" lon="35.04143530">
        <ele>555.00000</ele>
        <time>2010-01-01T05:10:29Z</time>
      </trkpt>
      <trkpt lat="31.79082850" lon="35.04215950">
        <ele>558.00000</ele>
        <time>2010-01-01T05:10:54Z</time>
      </trkpt>
      <trkpt lat="31.79098360" lon="35.04285690">
        <ele>566.00000</ele>
        <time>2010-01-01T05:11:18Z</time>
      </trkpt>
      <trkpt lat="31.79152160" lon="35.04458420">
        <ele>578.00000</ele>
        <time>2010-01-01T05:12:21Z</time>
      </trkpt>
      <trkpt lat="31.79177240" lon="35.04501340">
        <ele>581.00000</ele>
        <time>2010-01-01T05:12:39Z</time>
      </trkpt>
      <trkpt lat="31.79233780" lon="35.04492750">
        <ele>584.00000</ele>
        <time>2010-01-01T05:13:01Z</time>
      </trkpt>
      <trkpt lat="31.79246090" lon="35.04586100">
        <ele>584.00000</ele>
        <time>2010-01-01T05:13:33Z</time>
      </trkpt>
      <trkpt lat="31.79326330" lon="35.04617210">
        <ele>579.00000</ele>
        <time>2010-01-01T05:14:07Z</time>
      </trkpt>
      <trkpt lat="31.79439410" lon="35.04780290">
        <ele>577.00000</ele>
        <time>2010-01-01T05:15:19Z</time>
      </trkpt>
      <trkpt lat="31.79521480" lon="35.04797450">
        <ele>577.00000</ele>
        <time>2010-01-01T05:15:52Z</time>
      </trkpt>
      <trkpt lat="31.79550660" lon="35.04842510">
        <ele>584.00000</ele>
        <time>2010-01-01T05:16:12Z</time>
      </trkpt>
      <trkpt lat="31.79567990" lon="35.04911180">
        <ele>587.00000</ele>
        <time>2010-01-01T05:16:36Z</time>
      </trkpt>
      <trkpt lat="31.79592150" lon="35.04918690">
        <ele>588.00000</ele>
        <time>2010-01-01T05:16:46Z</time>
      </trkpt>
      <trkpt lat="31.79623150" lon="35.04880600">
        <ele>588.00000</ele>
        <time>2010-01-01T05:17:04Z</time>
      </trkpt>
      <trkpt lat="31.79629080" lon="35.04857000">
        <ele>589.00000</ele>
        <time>2010-01-01T05:17:12Z</time>
      </trkpt>
      <trkpt lat="31.79651880" lon="35.04816230">
        <ele>593.00000</ele>
        <time>2010-01-01T05:17:29Z</time>
      </trkpt>
      <trkpt lat="31.79688350" lon="35.04795310">
        <ele>595.00000</ele>
        <time>2010-01-01T05:17:45Z</time>
      </trkpt>
      <trkpt lat="31.79661910" lon="35.04782430">
        <ele>599.00000</ele>
        <time>2010-01-01T05:17:57Z</time>
      </trkpt>
      <trkpt lat="31.79651880" lon="35.04756150">
        <ele>601.00000</ele>
        <time>2010-01-01T05:18:06Z</time>
      </trkpt>
      <trkpt lat="31.79677410" lon="35.04720210">
        <ele>606.00000</ele>
        <time>2010-01-01T05:18:22Z</time>
      </trkpt>
      <trkpt lat="31.79675590" lon="35.04688020">
        <ele>609.00000</ele>
        <time>2010-01-01T05:18:33Z</time>
      </trkpt>
      <trkpt lat="31.79722090" lon="35.04683730">
        <ele>610.00000</ele>
        <time>2010-01-01T05:18:52Z</time>
      </trkpt>
      <trkpt lat="31.79731210" lon="35.04627940">
        <ele>612.00000</ele>
        <time>2010-01-01T05:19:11Z</time>
      </trkpt>
      <trkpt lat="31.79789570" lon="35.04575370">
        <ele>608.00000</ele>
        <time>2010-01-01T05:19:41Z</time>
      </trkpt>
      <trkpt lat="31.79886230" lon="35.04501340">
        <ele>602.00000</ele>
        <time>2010-01-01T05:20:27Z</time>
      </trkpt>
      <trkpt lat="31.79939110" lon="35.04477200">
        <ele>598.00000</ele>
        <time>2010-01-01T05:20:50Z</time>
      </trkpt>
      <trkpt lat="31.79992000" lon="35.04441790">
        <ele>590.00000</ele>
        <time>2010-01-01T05:21:14Z</time>
      </trkpt>
      <trkpt lat="31.80007500" lon="35.04423020">
        <ele>589.00000</ele>
        <time>2010-01-01T05:21:23Z</time>
      </trkpt>
      <trkpt lat="31.80048530" lon="35.04406920">
        <ele>581.00000</ele>
        <time>2010-01-01T05:21:40Z</time>
      </trkpt>
      <trkpt lat="31.80025740" lon="35.04331820">
        <ele>589.00000</ele>
        <time>2010-01-01T05:22:07Z</time>
      </trkpt>
      <trkpt lat="31.80027110" lon="35.04267990">
        <ele>585.00000</ele>
        <time>2010-01-01T05:22:29Z</time>
      </trkpt>
      <trkpt lat="31.80054000" lon="35.04241700">
        <ele>580.00000</ele>
        <time>2010-01-01T05:22:43Z</time>
      </trkpt>
      <trkpt lat="31.80073150" lon="35.04197710">
        <ele>576.00000</ele>
        <time>2010-01-01T05:23:00Z</time>
      </trkpt>
      <trkpt lat="31.80066770" lon="35.04178940">
        <ele>576.00000</ele>
        <time>2010-01-01T05:23:07Z</time>
      </trkpt>
      <trkpt lat="31.80032120" lon="35.04167130">
        <ele>579.00000</ele>
        <time>2010-01-01T05:23:21Z</time>
      </trkpt>
      <trkpt lat="31.80025740" lon="35.04149430">
        <ele>578.00000</ele>
        <time>2010-01-01T05:23:28Z</time>
      </trkpt>
      <trkpt lat="31.80040330" lon="35.04116170">
        <ele>574.00000</ele>
        <time>2010-01-01T05:23:40Z</time>
      </trkpt>
      <trkpt lat="31.80035770" lon="35.04068970">
        <ele>569.00000</ele>
        <time>2010-01-01T05:23:57Z</time>
      </trkpt>
      <trkpt lat="31.80043060" lon="35.04021760">
        <ele>561.00000</ele>
        <time>2010-01-01T05:24:13Z</time>
      </trkpt>
      <trkpt lat="31.80033940" lon="35.04001370">
        <ele>558.00000</ele>
        <time>2010-01-01T05:24:21Z</time>
      </trkpt>
      <trkpt lat="31.80059480" lon="35.03978840">
        <ele>555.00000</ele>
        <time>2010-01-01T05:24:33Z</time>
      </trkpt>
      <trkpt lat="31.80066770" lon="35.03957390">
        <ele>552.00000</ele>
        <time>2010-01-01T05:24:41Z</time>
      </trkpt>
      <trkpt lat="31.80042150" lon="35.03954170">
        <ele>548.00000</ele>
        <time>2010-01-01T05:24:51Z</time>
      </trkpt>
      <trkpt lat="31.80061300" lon="35.03912320">
        <ele>542.00000</ele>
        <time>2010-01-01T05:25:07Z</time>
      </trkpt>
      <trkpt lat="31.80087740" lon="35.03897300">
        <ele>544.00000</ele>
        <time>2010-01-01T05:25:19Z</time>
      </trkpt>
      <trkpt lat="31.80096860" lon="35.03873700">
        <ele>540.00000</ele>
        <time>2010-01-01T05:25:28Z</time>
      </trkpt>
      <trkpt lat="31.80064030" lon="35.03880140">
        <ele>537.00000</ele>
        <time>2010-01-01T05:25:41Z</time>
      </trkpt>
      <trkpt lat="31.80015710" lon="35.03917690">
        <ele>536.00000</ele>
        <time>2010-01-01T05:26:05Z</time>
      </trkpt>
      <trkpt lat="31.79988350" lon="35.03946660">
        <ele>538.00000</ele>
        <time>2010-01-01T05:26:19Z</time>
      </trkpt>
      <trkpt lat="31.79917680" lon="35.04002980">
        <ele>532.00000</ele>
        <time>2010-01-01T05:26:53Z</time>
      </trkpt>
      <trkpt lat="31.79819210" lon="35.04107050">
        <ele>530.00000</ele>
        <time>2010-01-01T05:27:46Z</time>
      </trkpt>
      <trkpt lat="31.79713890" lon="35.04206290">
        <ele>531.00000</ele>
        <time>2010-01-01T05:28:40Z</time>
      </trkpt>
      <trkpt lat="31.79686530" lon="35.04193420">
        <ele>530.00000</ele>
        <time>2010-01-01T05:28:52Z</time>
      </trkpt>
      <trkpt lat="31.79700210" lon="35.04167670">
        <ele>529.00000</ele>
        <time>2010-01-01T05:29:03Z</time>
      </trkpt>
      <trkpt lat="31.79800510" lon="35.04027120">
        <ele>522.00000</ele>
        <time>2010-01-01T05:30:05Z</time>
      </trkpt>
      <trkpt lat="31.79889420" lon="35.03888180">
        <ele>516.00000</ele>
        <time>2010-01-01T05:31:04Z</time>
      </trkpt>
      <trkpt lat="31.79908570" lon="35.03869950">
        <ele>511.00000</ele>
        <time>2010-01-01T05:31:14Z</time>
      </trkpt>
      <trkpt lat="31.79949600" lon="35.03779290">
        <ele>507.00000</ele>
        <time>2010-01-01T05:31:49Z</time>
      </trkpt>
      <trkpt lat="31.79969200" lon="35.03725110">
        <ele>501.00000</ele>
        <time>2010-01-01T05:32:09Z</time>
      </trkpt>
      <trkpt lat="31.80002490" lon="35.03679510">
        <ele>493.00000</ele>
        <time>2010-01-01T05:32:29Z</time>
      </trkpt>
      <trkpt lat="31.80036680" lon="35.03609770">
        <ele>493.00000</ele>
        <time>2010-01-01T05:32:57Z</time>
      </trkpt>
      <trkpt lat="31.80049900" lon="35.03586170">
        <ele>491.00000</ele>
        <time>2010-01-01T05:33:06Z</time>
      </trkpt>
      <trkpt lat="31.80050810" lon="35.03531990">
        <ele>484.00000</ele>
        <time>2010-01-01T05:33:25Z</time>
      </trkpt>
      <trkpt lat="31.80042610" lon="35.03512680">
        <ele>482.00000</ele>
        <time>2010-01-01T05:33:32Z</time>
      </trkpt>
      <trkpt lat="31.80007040" lon="35.03495510">
        <ele>481.00000</ele>
        <time>2010-01-01T05:33:48Z</time>
      </trkpt>
      <trkpt lat="31.79950510" lon="35.03437570">
        <ele>483.00000</ele>
        <time>2010-01-01T05:34:18Z</time>
      </trkpt>
      <trkpt lat="31.79907650" lon="35.03395730">
        <ele>486.00000</ele>
        <time>2010-01-01T05:34:40Z</time>
      </trkpt>
      <trkpt lat="31.79886230" lon="35.03337800">
        <ele>486.00000</ele>
        <time>2010-01-01T05:35:01Z</time>
      </trkpt>
      <trkpt lat="31.79887140" lon="35.03265910">
        <ele>485.00000</ele>
        <time>2010-01-01T05:35:26Z</time>
      </trkpt>
      <trkpt lat="31.79924070" lon="35.03260010">
        <ele>477.00000</ele>
        <time>2010-01-01T05:35:41Z</time>
      </trkpt>
      <trkpt lat="31.79953700" lon="35.03240160">
        <ele>470.00000</ele>
        <time>2010-01-01T05:35:54Z</time>
      </trkpt>
      <trkpt lat="31.79977410" lon="35.03242850">
        <ele>464.00000</ele>
        <time>2010-01-01T05:36:04Z</time>
      </trkpt>
      <trkpt lat="31.79999290" lon="35.03213880">
        <ele>460.00000</ele>
        <time>2010-01-01T05:36:17Z</time>
      </trkpt>
      <trkpt lat="31.80017530" lon="35.03195640">
        <ele>455.00000</ele>
        <time>2010-01-01T05:36:27Z</time>
      </trkpt>
      <trkpt lat="31.80035770" lon="35.03168820">
        <ele>449.00000</ele>
        <time>2010-01-01T05:36:38Z</time>
      </trkpt>
      <trkpt lat="31.80048530" lon="35.03104440">
        <ele>443.00000</ele>
        <time>2010-01-01T05:37:01Z</time>
      </trkpt>
      <trkpt lat="31.80083180" lon="35.02956390">
        <ele>437.00000</ele>
        <time>2010-01-01T05:37:53Z</time>
      </trkpt>
      <trkpt lat="31.80161140" lon="35.02855000">
        <ele>421.00000</ele>
        <time>2010-01-01T05:38:40Z</time>
      </trkpt>
      <trkpt lat="31.80265550" lon="35.02705330">
        <ele>399.00000</ele>
        <time>2010-01-01T05:39:46Z</time>
      </trkpt>
      <trkpt lat="31.80264630" lon="35.02669930">
        <ele>401.00000</ele>
        <time>2010-01-01T05:39:58Z</time>
      </trkpt>
      <trkpt lat="31.80276490" lon="35.02630770">
        <ele>400.00000</ele>
        <time>2010-01-01T05:40:12Z</time>
      </trkpt>
      <trkpt lat="31.80364020" lon="35.02572290">
        <ele>387.00000</ele>
        <time>2010-01-01T05:40:52Z</time>
      </trkpt>
      <trkpt lat="31.80498970" lon="35.02473590">
        <ele>376.00000</ele>
        <time>2010-01-01T05:41:56Z</time>
      </trkpt>
      <trkpt lat="31.80591060" lon="35.02410290">
        <ele>368.00000</ele>
        <time>2010-01-01T05:42:38Z</time>
      </trkpt>
      <trkpt lat="31.80634370" lon="35.02396880">
        <ele>363.00000</ele>
        <time>2010-01-01T05:42:56Z</time>
      </trkpt>
      <trkpt lat="31.80689070" lon="35.02371130">
        <ele>359.00000</ele>
        <time>2010-01-01T05:43:20Z</time>
      </trkpt>
      <trkpt lat="31.80872790" lon="35.02203220">
        <ele>337.00000</ele>
        <time>2010-01-01T05:44:53Z</time>
      </trkpt>
      <trkpt lat="31.80896950" lon="35.02173720">
        <ele>334.00000</ele>
        <time>2010-01-01T05:45:07Z</time>
      </trkpt>
      <trkpt lat="31.80919750" lon="35.02135090">
        <ele>328.00000</ele>
        <time>2010-01-01T05:45:23Z</time>
      </trkpt>
      <trkpt lat="31.80938890" lon="35.02071790">
        <ele>324.00000</ele>
        <time>2010-01-01T05:45:46Z</time>
      </trkpt>
      <trkpt lat="31.80960320" lon="35.01947870">
        <ele>310.00000</ele>
        <time>2010-01-01T05:46:29Z</time>
      </trkpt>
      <trkpt lat="31.80850910" lon="35.01872770">
        <ele>311.00000</ele>
        <time>2010-01-01T05:47:19Z</time>
      </trkpt>
      <trkpt lat="31.80741040" lon="35.01818590">
        <ele>314.00000</ele>
        <time>2010-01-01T05:48:07Z</time>
      </trkpt>
      <trkpt lat="31.80656700" lon="35.01796600">
        <ele>318.00000</ele>
        <time>2010-01-01T05:48:42Z</time>
      </trkpt>
      <trkpt lat="31.80632090" lon="35.01796600">
        <ele>320.00000</ele>
        <time>2010-01-01T05:48:52Z</time>
      </trkpt>
      <trkpt lat="31.80467050" lon="35.01719890">
        <ele>329.00000</ele>
        <time>2010-01-01T05:50:03Z</time>
      </trkpt>
      <trkpt lat="31.80275120" lon="35.01609380">
        <ele>314.00000</ele>
        <time>2010-01-01T05:51:28Z</time>
      </trkpt>
      <trkpt lat="31.80143360" lon="35.01508530">
        <ele>308.00000</ele>
        <time>2010-01-01T05:52:31Z</time>
      </trkpt>
      <trkpt lat="31.80072240" lon="35.01468830">
        <ele>306.00000</ele>
        <time>2010-01-01T05:53:03Z</time>
      </trkpt>
      <trkpt lat="31.80001120" lon="35.01467220">
        <ele>308.00000</ele>
        <time>2010-01-01T05:53:31Z</time>
      </trkpt>
      <trkpt lat="31.79983790" lon="35.01562710">
        <ele>322.00000</ele>
        <time>2010-01-01T05:54:04Z</time>
      </trkpt>
      <trkpt lat="31.79943670" lon="35.01634060">
        <ele>332.00000</ele>
        <time>2010-01-01T05:54:33Z</time>
      </trkpt>
      <trkpt lat="31.79949140" lon="35.01681800">
        <ele>335.00000</ele>
        <time>2010-01-01T05:54:50Z</time>
      </trkpt>
      <trkpt lat="31.79933640" lon="35.01700580">
        <ele>336.00000</ele>
        <time>2010-01-01T05:54:59Z</time>
      </trkpt>
      <trkpt lat="31.79919960" lon="35.01748320">
        <ele>335.00000</ele>
        <time>2010-01-01T05:55:16Z</time>
      </trkpt>
      <trkpt lat="31.79916320" lon="35.01772990">
        <ele>336.00000</ele>
        <time>2010-01-01T05:55:24Z</time>
      </trkpt>
      <trkpt lat="31.79949140" lon="35.01822350">
        <ele>340.00000</ele>
        <time>2010-01-01T05:55:46Z</time>
      </trkpt>
      <trkpt lat="31.79994740" lon="35.01818060">
        <ele>342.00000</ele>
        <time>2010-01-01T05:56:04Z</time>
      </trkpt>
      <trkpt lat="31.80023000" lon="35.01791230">
        <ele>344.00000</ele>
        <time>2010-01-01T05:56:19Z</time>
      </trkpt>
      <trkpt lat="31.80034400" lon="35.01815910">
        <ele>348.00000</ele>
        <time>2010-01-01T05:56:28Z</time>
      </trkpt>
      <trkpt lat="31.80034400" lon="35.01853460">
        <ele>353.00000</ele>
        <time>2010-01-01T05:56:41Z</time>
      </trkpt>
      <trkpt lat="31.80038500" lon="35.01897450">
        <ele>361.00000</ele>
        <time>2010-01-01T05:56:56Z</time>
      </trkpt>
      <trkpt lat="31.80048530" lon="35.01924270">
        <ele>366.00000</ele>
        <time>2010-01-01T05:57:06Z</time>
      </trkpt>
      <trkpt lat="31.80081360" lon="35.01950020">
        <ele>372.00000</ele>
        <time>2010-01-01T05:57:22Z</time>
      </trkpt>
      <trkpt lat="31.80095950" lon="35.01982210">
        <ele>374.00000</ele>
        <time>2010-01-01T05:57:34Z</time>
      </trkpt>
      <trkpt lat="31.80089570" lon="35.01991860">
        <ele>376.00000</ele>
        <time>2010-01-01T05:57:38Z</time>
      </trkpt>
      <trkpt lat="31.80054460" lon="35.01974700">
        <ele>373.00000</ele>
        <time>2010-01-01T05:57:53Z</time>
      </trkpt>
      <trkpt lat="31.80028470" lon="35.01986500">
        <ele>373.00000</ele>
        <time>2010-01-01T05:58:05Z</time>
      </trkpt>
      <trkpt lat="31.80009320" lon="35.02083060">
        <ele>391.00000</ele>
        <time>2010-01-01T05:58:38Z</time>
      </trkpt>
      <trkpt lat="31.79970120" lon="35.02119540">
        <ele>399.00000</ele>
        <time>2010-01-01T05:58:58Z</time>
      </trkpt>
      <trkpt lat="31.79975590" lon="35.02136700">
        <ele>402.00000</ele>
        <time>2010-01-01T05:59:05Z</time>
      </trkpt>
      <trkpt lat="31.80013880" lon="35.02168890">
        <ele>405.00000</ele>
        <time>2010-01-01T05:59:23Z</time>
      </trkpt>
      <trkpt lat="31.80002940" lon="35.02210730">
        <ele>413.00000</ele>
        <time>2010-01-01T05:59:38Z</time>
      </trkpt>
      <trkpt lat="31.79949140" lon="35.02208590">
        <ele>416.00000</ele>
        <time>2010-01-01T06:00:00Z</time>
      </trkpt>
      <trkpt lat="31.79907200" lon="35.02219310">
        <ele>422.00000</ele>
        <time>2010-01-01T06:00:17Z</time>
      </trkpt>
      <trkpt lat="31.79874370" lon="35.02211800">
        <ele>424.00000</ele>
        <time>2010-01-01T06:00:30Z</time>
      </trkpt>
      <trkpt lat="31.79777720" lon="35.02203220">
        <ele>432.00000</ele>
        <time>2010-01-01T06:01:09Z</time>
      </trkpt>
      <trkpt lat="31.79754920" lon="35.02211800">
        <ele>435.00000</ele>
        <time>2010-01-01T06:01:19Z</time>
      </trkpt>
      <trkpt lat="31.79824220" lon="35.02283690">
        <ele>446.00000</ele>
        <time>2010-01-01T06:01:56Z</time>
      </trkpt>
      <trkpt lat="31.79851580" lon="35.02287980">
        <ele>445.00000</ele>
        <time>2010-01-01T06:02:07Z</time>
      </trkpt>
      <trkpt lat="31.79869810" lon="35.02307290">
        <ele>447.00000</ele>
        <time>2010-01-01T06:02:17Z</time>
      </trkpt>
      <trkpt lat="31.79822400" lon="35.02331970">
        <ele>458.00000</ele>
        <time>2010-01-01T06:02:37Z</time>
      </trkpt>
      <trkpt lat="31.79761300" lon="35.02318020">
        <ele>456.00000</ele>
        <time>2010-01-01T06:03:02Z</time>
      </trkpt>
      <trkpt lat="31.79753100" lon="35.02331970">
        <ele>459.00000</ele>
        <time>2010-01-01T06:03:08Z</time>
      </trkpt>
      <trkpt lat="31.79768600" lon="35.02357720">
        <ele>462.00000</ele>
        <time>2010-01-01T06:03:19Z</time>
      </trkpt>
      <trkpt lat="31.79764950" lon="35.02374880">
        <ele>463.00000</ele>
        <time>2010-01-01T06:03:25Z</time>
      </trkpt>
      <trkpt lat="31.79766770" lon="35.02409750">
        <ele>467.00000</ele>
        <time>2010-01-01T06:03:37Z</time>
      </trkpt>
      <trkpt lat="31.79801420" lon="35.02436570">
        <ele>475.00000</ele>
        <time>2010-01-01T06:03:53Z</time>
      </trkpt>
      <trkpt lat="31.79803250" lon="35.02460710">
        <ele>475.00000</ele>
        <time>2010-01-01T06:04:02Z</time>
      </trkpt>
      <trkpt lat="31.79791390" lon="35.02476810">
        <ele>472.00000</ele>
        <time>2010-01-01T06:04:09Z</time>
      </trkpt>
      <trkpt lat="31.79782270" lon="35.02532600">
        <ele>468.00000</ele>
        <time>2010-01-01T06:04:28Z</time>
      </trkpt>
      <trkpt lat="31.79794130" lon="35.02581950">
        <ele>468.00000</ele>
        <time>2010-01-01T06:04:46Z</time>
      </trkpt>
      <trkpt lat="31.79789570" lon="35.02607700">
        <ele>468.00000</ele>
        <time>2010-01-01T06:04:55Z</time>
      </trkpt>
      <trkpt lat="31.79761300" lon="35.02642030">
        <ele>471.00000</ele>
        <time>2010-01-01T06:05:11Z</time>
      </trkpt>
      <trkpt lat="31.79728480" lon="35.02642030">
        <ele>472.00000</ele>
        <time>2010-01-01T06:05:24Z</time>
      </trkpt>
      <trkpt lat="31.79709330" lon="35.02651690">
        <ele>474.00000</ele>
        <time>2010-01-01T06:05:32Z</time>
      </trkpt>
      <trkpt lat="31.79698380" lon="35.02684950">
        <ele>480.00000</ele>
        <time>2010-01-01T06:05:44Z</time>
      </trkpt>
      <trkpt lat="31.79728480" lon="35.02711770">
        <ele>483.00000</ele>
        <time>2010-01-01T06:06:00Z</time>
      </trkpt>
      <trkpt lat="31.79690180" lon="35.02750390">
        <ele>490.00000</ele>
        <time>2010-01-01T06:06:20Z</time>
      </trkpt>
      <trkpt lat="31.79599900" lon="35.02789020">
        <ele>499.00000</ele>
        <time>2010-01-01T06:06:58Z</time>
      </trkpt>
      <trkpt lat="31.79518740" lon="35.02859830">
        <ele>501.00000</ele>
        <time>2010-01-01T06:07:39Z</time>
      </trkpt>
      <trkpt lat="31.79458560" lon="35.02935460">
        <ele>503.00000</ele>
        <time>2010-01-01T06:08:14Z</time>
      </trkpt>
      <trkpt lat="31.79438500" lon="35.02948340">
        <ele>500.00000</ele>
        <time>2010-01-01T06:08:23Z</time>
      </trkpt>
      <trkpt lat="31.79404300" lon="35.02941900">
        <ele>498.00000</ele>
        <time>2010-01-01T06:08:37Z</time>
      </trkpt>
      <trkpt lat="31.79396100" lon="35.02917760">
        <ele>497.00000</ele>
        <time>2010-01-01T06:08:46Z</time>
      </trkpt>
      <trkpt lat="31.79355520" lon="35.02866260">
        <ele>498.00000</ele>
        <time>2010-01-01T06:09:10Z</time>
      </trkpt>
      <trkpt lat="31.79348220" lon="35.02813690">
        <ele>490.00000</ele>
        <time>2010-01-01T06:09:28Z</time>
      </trkpt>
      <trkpt lat="31.79318130" lon="35.02772920">
        <ele>488.00000</ele>
        <time>2010-01-01T06:09:46Z</time>
      </trkpt>
      <trkpt lat="31.79309460" lon="35.02719810">
        <ele>478.00000</ele>
        <time>2010-01-01T06:10:05Z</time>
      </trkpt>
      <trkpt lat="31.79288030" lon="35.02691380">
        <ele>477.00000</ele>
        <time>2010-01-01T06:10:17Z</time>
      </trkpt>
      <trkpt lat="31.79225570" lon="35.02689240">
        <ele>487.00000</ele>
        <time>2010-01-01T06:10:42Z</time>
      </trkpt>
      <trkpt lat="31.79186810" lon="35.02713910">
        <ele>492.00000</ele>
        <time>2010-01-01T06:11:00Z</time>
      </trkpt>
      <trkpt lat="31.79161280" lon="35.02722500">
        <ele>494.00000</ele>
        <time>2010-01-01T06:11:11Z</time>
      </trkpt>
      <trkpt lat="31.79112040" lon="35.02730010">
        <ele>498.00000</ele>
        <time>2010-01-01T06:11:31Z</time>
      </trkpt>
      <trkpt lat="31.79102920" lon="35.02698890">
        <ele>495.00000</ele>
        <time>2010-01-01T06:11:42Z</time>
      </trkpt>
      <trkpt lat="31.79106560" lon="35.02640960">
        <ele>488.00000</ele>
        <time>2010-01-01T06:12:02Z</time>
      </trkpt>
      <trkpt lat="31.79102000" lon="35.02617350">
        <ele>485.00000</ele>
        <time>2010-01-01T06:12:10Z</time>
      </trkpt>
      <trkpt lat="31.79109300" lon="35.02598040">
        <ele>481.00000</ele>
        <time>2010-01-01T06:12:17Z</time>
      </trkpt>
      <trkpt lat="31.79109300" lon="35.02552980">
        <ele>475.00000</ele>
        <time>2010-01-01T06:12:32Z</time>
      </trkpt>
      <trkpt lat="31.79091970" lon="35.02505770">
        <ele>476.00000</ele>
        <time>2010-01-01T06:12:50Z</time>
      </trkpt>
      <trkpt lat="31.79114770" lon="35.02425310">
        <ele>456.00000</ele>
        <time>2010-01-01T06:13:19Z</time>
      </trkpt>
      <trkpt lat="31.79107480" lon="35.02387760">
        <ele>451.00000</ele>
        <time>2010-01-01T06:13:32Z</time>
      </trkpt>
      <trkpt lat="31.79066440" lon="35.02370590">
        <ele>457.00000</ele>
        <time>2010-01-01T06:13:49Z</time>
      </trkpt>
      <trkpt lat="31.79047290" lon="35.02348060">
        <ele>455.00000</ele>
        <time>2010-01-01T06:14:00Z</time>
      </trkpt>
      <trkpt lat="31.79034520" lon="35.02333040">
        <ele>453.00000</ele>
        <time>2010-01-01T06:14:07Z</time>
      </trkpt>
      <trkpt lat="31.79003520" lon="35.02320170">
        <ele>456.00000</ele>
        <time>2010-01-01T06:14:20Z</time>
      </trkpt>
      <trkpt lat="31.79002600" lon="35.02296560">
        <ele>453.00000</ele>
        <time>2010-01-01T06:14:29Z</time>
      </trkpt>
      <trkpt lat="31.79026310" lon="35.02281540">
        <ele>447.00000</ele>
        <time>2010-01-01T06:14:39Z</time>
      </trkpt>
      <trkpt lat="31.79025400" lon="35.02193570">
        <ele>439.00000</ele>
        <time>2010-01-01T06:15:09Z</time>
      </trkpt>
      <trkpt lat="31.78998040" lon="35.02165670">
        <ele>441.00000</ele>
        <time>2010-01-01T06:15:24Z</time>
      </trkpt>
      <trkpt lat="31.78975250" lon="35.02128120">
        <ele>436.00000</ele>
        <time>2010-01-01T06:15:39Z</time>
      </trkpt>
      <trkpt lat="31.78975250" lon="35.02114170">
        <ele>434.00000</ele>
        <time>2010-01-01T06:15:44Z</time>
      </trkpt>
      <trkpt lat="31.78962480" lon="35.02098080">
        <ele>432.00000</ele>
        <time>2010-01-01T06:15:52Z</time>
      </trkpt>
      <trkpt lat="31.78980720" lon="35.02089500">
        <ele>431.00000</ele>
        <time>2010-01-01T06:16:00Z</time>
      </trkpt>
      <trkpt lat="31.78990750" lon="35.02071260">
        <ele>428.00000</ele>
        <time>2010-01-01T06:16:07Z</time>
      </trkpt>
      <trkpt lat="31.79015370" lon="35.02062670">
        <ele>425.00000</ele>
        <time>2010-01-01T06:16:17Z</time>
      </trkpt>
      <trkpt lat="31.79108390" lon="35.02084130">
        <ele>418.00000</ele>
        <time>2010-01-01T06:16:55Z</time>
      </trkpt>
      <trkpt lat="31.79163100" lon="35.02077690">
        <ele>410.00000</ele>
        <time>2010-01-01T06:17:17Z</time>
      </trkpt>
      <trkpt lat="31.79170400" lon="35.02042290">
        <ele>403.00000</ele>
        <time>2010-01-01T06:17:30Z</time>
      </trkpt>
      <trkpt lat="31.79135750" lon="35.01988640">
        <ele>397.00000</ele>
        <time>2010-01-01T06:17:52Z</time>
      </trkpt>
      <trkpt lat="31.79128450" lon="35.01948950">
        <ele>390.00000</ele>
        <time>2010-01-01T06:18:06Z</time>
      </trkpt>
      <trkpt lat="31.79146690" lon="35.01938220">
        <ele>387.00000</ele>
        <time>2010-01-01T06:18:14Z</time>
      </trkpt>
      <trkpt lat="31.79225110" lon="35.01935000">
        <ele>381.00000</ele>
        <time>2010-01-01T06:18:46Z</time>
      </trkpt>
      <trkpt lat="31.79268880" lon="35.01902810">
        <ele>375.00000</ele>
        <time>2010-01-01T06:19:07Z</time>
      </trkpt>
      <trkpt lat="31.79267060" lon="35.01872770">
        <ele>374.00000</ele>
        <time>2010-01-01T06:19:17Z</time>
      </trkpt>
      <trkpt lat="31.79248820" lon="35.01836290">
        <ele>373.00000</ele>
        <time>2010-01-01T06:19:31Z</time>
      </trkpt>
      <trkpt lat="31.79241530" lon="35.01801960">
        <ele>372.00000</ele>
        <time>2010-01-01T06:19:43Z</time>
      </trkpt>
      <trkpt lat="31.79229670" lon="35.01775140">
        <ele>370.00000</ele>
        <time>2010-01-01T06:19:54Z</time>
      </trkpt>
      <trkpt lat="31.79225110" lon="35.01734370">
        <ele>367.00000</ele>
        <time>2010-01-01T06:20:07Z</time>
      </trkpt>
      <trkpt lat="31.79220550" lon="35.01659270">
        <ele>359.00000</ele>
        <time>2010-01-01T06:20:33Z</time>
      </trkpt>
      <trkpt lat="31.79223290" lon="35.01610990">
        <ele>353.00000</ele>
        <time>2010-01-01T06:20:50Z</time>
      </trkpt>
      <trkpt lat="31.79230580" lon="35.01590600">
        <ele>352.00000</ele>
        <time>2010-01-01T06:20:57Z</time>
      </trkpt>
      <trkpt lat="31.79243350" lon="35.01574510">
        <ele>351.00000</ele>
        <time>2010-01-01T06:21:05Z</time>
      </trkpt>
      <trkpt lat="31.79268880" lon="35.01560560">
        <ele>350.00000</ele>
        <time>2010-01-01T06:21:16Z</time>
      </trkpt>
      <trkpt lat="31.79291680" lon="35.01536960">
        <ele>346.00000</ele>
        <time>2010-01-01T06:21:28Z</time>
      </trkpt>
      <trkpt lat="31.79349130" lon="35.01524090">
        <ele>344.00000</ele>
        <time>2010-01-01T06:21:51Z</time>
      </trkpt>
      <trkpt lat="31.79402930" lon="35.01504770">
        <ele>339.00000</ele>
        <time>2010-01-01T06:22:14Z</time>
      </trkpt>
      <trkpt lat="31.79459930" lon="35.01521400">
        <ele>336.00000</ele>
        <time>2010-01-01T06:22:37Z</time>
      </trkpt>
      <trkpt lat="31.79513730" lon="35.01570760">
        <ele>334.00000</ele>
        <time>2010-01-01T06:23:05Z</time>
      </trkpt>
      <trkpt lat="31.79592270" lon="35.01548350">
        <ele>333.00000</ele>
        <time>2010-01-01T06:23:37Z</time>
      </trkpt>
    </trkseg>
  </trk>
</gpx>

